<?xml version="1.0" encoding="UTF-8" standalone="no" ?>
<gpx xmlns="http://www.topografix.com/GPX/1/1" xmlns:xsi="http://www.w3.org/2001/XMLSchema-instance" xsi:schemaLocation="http://www.topografix.com/GPX/1/1 http://www.topografix.com/GPX/1/1/gpx.xsd" version="1.1" creator="VisuGPX - https://www.visugpx.com">
  <metadata>
    <name>Mensignac </name>
  </metadata>
  <trk>
    <name><![CDATA[randogps24-659]]></name>
    <trkseg>
      <trkpt lat="45.22747" lon="0.56151">
        <ele>242</ele>
        <time>2022-01-28T13:11:08Z</time>
      </trkpt>
      <trkpt lat="45.22739" lon="0.56143">
        <ele>240</ele>
        <time>2022-01-28T13:11:35Z</time>
      </trkpt>
      <trkpt lat="45.22732" lon="0.56153">
        <ele>237</ele>
        <time>2022-01-28T13:11:44Z</time>
      </trkpt>
      <trkpt lat="45.22727" lon="0.56164">
        <ele>236</ele>
        <time>2022-01-28T13:11:52Z</time>
      </trkpt>
      <trkpt lat="45.22729" lon="0.56178">
        <ele>237</ele>
        <time>2022-01-28T13:12:00Z</time>
      </trkpt>
      <trkpt lat="45.22731" lon="0.5619">
        <ele>237</ele>
        <time>2022-01-28T13:12:08Z</time>
      </trkpt>
      <trkpt lat="45.22736" lon="0.56202">
        <ele>239</ele>
        <time>2022-01-28T13:12:16Z</time>
      </trkpt>
      <trkpt lat="45.22741" lon="0.56213">
        <ele>241</ele>
        <time>2022-01-28T13:12:23Z</time>
      </trkpt>
      <trkpt lat="45.22747" lon="0.56223">
        <ele>242</ele>
        <time>2022-01-28T13:12:30Z</time>
      </trkpt>
      <trkpt lat="45.22752" lon="0.56234">
        <ele>244</ele>
        <time>2022-01-28T13:12:38Z</time>
      </trkpt>
      <trkpt lat="45.22746" lon="0.56244">
        <ele>244</ele>
        <time>2022-01-28T13:12:47Z</time>
      </trkpt>
      <trkpt lat="45.2274" lon="0.56254">
        <ele>245</ele>
        <time>2022-01-28T13:12:58Z</time>
      </trkpt>
      <trkpt lat="45.22733" lon="0.56263">
        <ele>246</ele>
        <time>2022-01-28T13:13:07Z</time>
      </trkpt>
      <trkpt lat="45.22726" lon="0.56272">
        <ele>246</ele>
        <time>2022-01-28T13:13:17Z</time>
      </trkpt>
      <trkpt lat="45.22719" lon="0.56282">
        <ele>248</ele>
        <time>2022-01-28T13:13:26Z</time>
      </trkpt>
      <trkpt lat="45.22712" lon="0.56291">
        <ele>249</ele>
        <time>2022-01-28T13:13:35Z</time>
      </trkpt>
      <trkpt lat="45.22704" lon="0.56298">
        <ele>252</ele>
        <time>2022-01-28T13:13:43Z</time>
      </trkpt>
      <trkpt lat="45.22699" lon="0.5631">
        <ele>252</ele>
        <time>2022-01-28T13:13:53Z</time>
      </trkpt>
      <trkpt lat="45.22692" lon="0.5632">
        <ele>252</ele>
        <time>2022-01-28T13:14:01Z</time>
      </trkpt>
      <trkpt lat="45.22685" lon="0.56329">
        <ele>251</ele>
        <time>2022-01-28T13:14:09Z</time>
      </trkpt>
      <trkpt lat="45.22688" lon="0.56341">
        <ele>250</ele>
        <time>2022-01-28T13:14:21Z</time>
      </trkpt>
      <trkpt lat="45.22697" lon="0.5635">
        <ele>251</ele>
        <time>2022-01-28T13:14:28Z</time>
      </trkpt>
      <trkpt lat="45.22704" lon="0.56358">
        <ele>252</ele>
        <time>2022-01-28T13:14:36Z</time>
      </trkpt>
      <trkpt lat="45.22708" lon="0.56371">
        <ele>252</ele>
        <time>2022-01-28T13:14:44Z</time>
      </trkpt>
      <trkpt lat="45.22716" lon="0.5638">
        <ele>252</ele>
        <time>2022-01-28T13:14:52Z</time>
      </trkpt>
      <trkpt lat="45.22722" lon="0.56389">
        <ele>252</ele>
        <time>2022-01-28T13:15:00Z</time>
      </trkpt>
      <trkpt lat="45.2273" lon="0.56399">
        <ele>252</ele>
        <time>2022-01-28T13:15:08Z</time>
      </trkpt>
      <trkpt lat="45.22736" lon="0.56409">
        <ele>253</ele>
        <time>2022-01-28T13:15:16Z</time>
      </trkpt>
      <trkpt lat="45.22742" lon="0.56419">
        <ele>253</ele>
        <time>2022-01-28T13:15:24Z</time>
      </trkpt>
      <trkpt lat="45.2275" lon="0.56427">
        <ele>253</ele>
        <time>2022-01-28T13:15:32Z</time>
      </trkpt>
      <trkpt lat="45.22757" lon="0.56436">
        <ele>252</ele>
        <time>2022-01-28T13:15:40Z</time>
      </trkpt>
      <trkpt lat="45.22764" lon="0.56445">
        <ele>252</ele>
        <time>2022-01-28T13:15:49Z</time>
      </trkpt>
      <trkpt lat="45.22771" lon="0.56454">
        <ele>253</ele>
        <time>2022-01-28T13:15:58Z</time>
      </trkpt>
      <trkpt lat="45.22779" lon="0.56462">
        <ele>256</ele>
        <time>2022-01-28T13:16:07Z</time>
      </trkpt>
      <trkpt lat="45.22784" lon="0.56473">
        <ele>257</ele>
        <time>2022-01-28T13:16:17Z</time>
      </trkpt>
      <trkpt lat="45.22783" lon="0.56478">
        <ele>247</ele>
        <time>2022-01-28T13:18:18Z</time>
      </trkpt>
      <trkpt lat="45.22792" lon="0.56483">
        <ele>251</ele>
        <time>2022-01-28T13:18:50Z</time>
      </trkpt>
      <trkpt lat="45.22799" lon="0.56493">
        <ele>251</ele>
        <time>2022-01-28T13:18:58Z</time>
      </trkpt>
      <trkpt lat="45.22806" lon="0.56501">
        <ele>253</ele>
        <time>2022-01-28T13:19:07Z</time>
      </trkpt>
      <trkpt lat="45.22814" lon="0.56509">
        <ele>256</ele>
        <time>2022-01-28T13:19:17Z</time>
      </trkpt>
      <trkpt lat="45.22822" lon="0.56517">
        <ele>255</ele>
        <time>2022-01-28T13:19:24Z</time>
      </trkpt>
      <trkpt lat="45.22831" lon="0.56524">
        <ele>253</ele>
        <time>2022-01-28T13:19:33Z</time>
      </trkpt>
      <trkpt lat="45.22838" lon="0.56532">
        <ele>251</ele>
        <time>2022-01-28T13:19:40Z</time>
      </trkpt>
      <trkpt lat="45.22846" lon="0.5654">
        <ele>250</ele>
        <time>2022-01-28T13:19:47Z</time>
      </trkpt>
      <trkpt lat="45.22853" lon="0.56548">
        <ele>249</ele>
        <time>2022-01-28T13:19:54Z</time>
      </trkpt>
      <trkpt lat="45.22861" lon="0.56556">
        <ele>251</ele>
        <time>2022-01-28T13:20:02Z</time>
      </trkpt>
      <trkpt lat="45.22868" lon="0.56563">
        <ele>250</ele>
        <time>2022-01-28T13:20:10Z</time>
      </trkpt>
      <trkpt lat="45.22877" lon="0.5657">
        <ele>250</ele>
        <time>2022-01-28T13:20:18Z</time>
      </trkpt>
      <trkpt lat="45.22885" lon="0.56577">
        <ele>251</ele>
        <time>2022-01-28T13:20:25Z</time>
      </trkpt>
      <trkpt lat="45.22893" lon="0.56586">
        <ele>251</ele>
        <time>2022-01-28T13:20:32Z</time>
      </trkpt>
      <trkpt lat="45.229" lon="0.56594">
        <ele>250</ele>
        <time>2022-01-28T13:20:39Z</time>
      </trkpt>
      <trkpt lat="45.22906" lon="0.56605">
        <ele>249</ele>
        <time>2022-01-28T13:20:46Z</time>
      </trkpt>
      <trkpt lat="45.2291" lon="0.56616">
        <ele>248</ele>
        <time>2022-01-28T13:20:54Z</time>
      </trkpt>
      <trkpt lat="45.22914" lon="0.56629">
        <ele>247</ele>
        <time>2022-01-28T13:21:02Z</time>
      </trkpt>
      <trkpt lat="45.22916" lon="0.56642">
        <ele>246</ele>
        <time>2022-01-28T13:21:10Z</time>
      </trkpt>
      <trkpt lat="45.22921" lon="0.56653">
        <ele>246</ele>
        <time>2022-01-28T13:21:17Z</time>
      </trkpt>
      <trkpt lat="45.22925" lon="0.56667">
        <ele>247</ele>
        <time>2022-01-28T13:21:25Z</time>
      </trkpt>
      <trkpt lat="45.22931" lon="0.56678">
        <ele>249</ele>
        <time>2022-01-28T13:21:32Z</time>
      </trkpt>
      <trkpt lat="45.22934" lon="0.56691">
        <ele>249</ele>
        <time>2022-01-28T13:21:39Z</time>
      </trkpt>
      <trkpt lat="45.22938" lon="0.56703">
        <ele>249</ele>
        <time>2022-01-28T13:21:47Z</time>
      </trkpt>
      <trkpt lat="45.22943" lon="0.56714">
        <ele>248</ele>
        <time>2022-01-28T13:21:54Z</time>
      </trkpt>
      <trkpt lat="45.22947" lon="0.56726">
        <ele>250</ele>
        <time>2022-01-28T13:22:02Z</time>
      </trkpt>
      <trkpt lat="45.22951" lon="0.56738">
        <ele>252</ele>
        <time>2022-01-28T13:22:10Z</time>
      </trkpt>
      <trkpt lat="45.22955" lon="0.56751">
        <ele>250</ele>
        <time>2022-01-28T13:22:18Z</time>
      </trkpt>
      <trkpt lat="45.22959" lon="0.56764">
        <ele>252</ele>
        <time>2022-01-28T13:22:26Z</time>
      </trkpt>
      <trkpt lat="45.22963" lon="0.56775">
        <ele>253</ele>
        <time>2022-01-28T13:22:34Z</time>
      </trkpt>
      <trkpt lat="45.22968" lon="0.56787">
        <ele>252</ele>
        <time>2022-01-28T13:22:41Z</time>
      </trkpt>
      <trkpt lat="45.22973" lon="0.56798">
        <ele>252</ele>
        <time>2022-01-28T13:22:48Z</time>
      </trkpt>
      <trkpt lat="45.22976" lon="0.5681">
        <ele>250</ele>
        <time>2022-01-28T13:22:55Z</time>
      </trkpt>
      <trkpt lat="45.22981" lon="0.56822">
        <ele>249</ele>
        <time>2022-01-28T13:23:02Z</time>
      </trkpt>
      <trkpt lat="45.22986" lon="0.56834">
        <ele>247</ele>
        <time>2022-01-28T13:23:10Z</time>
      </trkpt>
      <trkpt lat="45.2299" lon="0.56846">
        <ele>247</ele>
        <time>2022-01-28T13:23:18Z</time>
      </trkpt>
      <trkpt lat="45.22995" lon="0.56858">
        <ele>248</ele>
        <time>2022-01-28T13:23:27Z</time>
      </trkpt>
      <trkpt lat="45.22999" lon="0.5687">
        <ele>249</ele>
        <time>2022-01-28T13:23:35Z</time>
      </trkpt>
      <trkpt lat="45.23002" lon="0.56882">
        <ele>249</ele>
        <time>2022-01-28T13:23:43Z</time>
      </trkpt>
      <trkpt lat="45.23007" lon="0.56894">
        <ele>249</ele>
        <time>2022-01-28T13:23:51Z</time>
      </trkpt>
      <trkpt lat="45.23013" lon="0.56905">
        <ele>249</ele>
        <time>2022-01-28T13:23:59Z</time>
      </trkpt>
      <trkpt lat="45.23018" lon="0.56916">
        <ele>248</ele>
        <time>2022-01-28T13:24:07Z</time>
      </trkpt>
      <trkpt lat="45.23024" lon="0.56927">
        <ele>246</ele>
        <time>2022-01-28T13:24:15Z</time>
      </trkpt>
      <trkpt lat="45.23029" lon="0.56939">
        <ele>246</ele>
        <time>2022-01-28T13:24:22Z</time>
      </trkpt>
      <trkpt lat="45.23033" lon="0.56952">
        <ele>245</ele>
        <time>2022-01-28T13:24:30Z</time>
      </trkpt>
      <trkpt lat="45.23039" lon="0.56964">
        <ele>246</ele>
        <time>2022-01-28T13:24:37Z</time>
      </trkpt>
      <trkpt lat="45.23044" lon="0.56975">
        <ele>244</ele>
        <time>2022-01-28T13:24:44Z</time>
      </trkpt>
      <trkpt lat="45.23048" lon="0.56987">
        <ele>244</ele>
        <time>2022-01-28T13:24:51Z</time>
      </trkpt>
      <trkpt lat="45.23054" lon="0.56999">
        <ele>244</ele>
        <time>2022-01-28T13:24:59Z</time>
      </trkpt>
      <trkpt lat="45.23057" lon="0.5701">
        <ele>242</ele>
        <time>2022-01-28T13:25:08Z</time>
      </trkpt>
      <trkpt lat="45.23063" lon="0.57021">
        <ele>242</ele>
        <time>2022-01-28T13:25:16Z</time>
      </trkpt>
      <trkpt lat="45.23069" lon="0.57032">
        <ele>242</ele>
        <time>2022-01-28T13:25:24Z</time>
      </trkpt>
      <trkpt lat="45.23073" lon="0.57044">
        <ele>241</ele>
        <time>2022-01-28T13:25:32Z</time>
      </trkpt>
      <trkpt lat="45.23078" lon="0.57057">
        <ele>241</ele>
        <time>2022-01-28T13:25:39Z</time>
      </trkpt>
      <trkpt lat="45.23083" lon="0.57068">
        <ele>239</ele>
        <time>2022-01-28T13:25:47Z</time>
      </trkpt>
      <trkpt lat="45.23088" lon="0.5708">
        <ele>239</ele>
        <time>2022-01-28T13:25:54Z</time>
      </trkpt>
      <trkpt lat="45.23093" lon="0.57092">
        <ele>238</ele>
        <time>2022-01-28T13:26:02Z</time>
      </trkpt>
      <trkpt lat="45.23099" lon="0.57104">
        <ele>236</ele>
        <time>2022-01-28T13:26:10Z</time>
      </trkpt>
      <trkpt lat="45.23104" lon="0.57115">
        <ele>235</ele>
        <time>2022-01-28T13:26:18Z</time>
      </trkpt>
      <trkpt lat="45.2311" lon="0.57125">
        <ele>236</ele>
        <time>2022-01-28T13:26:25Z</time>
      </trkpt>
      <trkpt lat="45.23116" lon="0.57134">
        <ele>235</ele>
        <time>2022-01-28T13:26:32Z</time>
      </trkpt>
      <trkpt lat="45.23122" lon="0.57145">
        <ele>234</ele>
        <time>2022-01-28T13:26:39Z</time>
      </trkpt>
      <trkpt lat="45.23129" lon="0.57155">
        <ele>234</ele>
        <time>2022-01-28T13:26:47Z</time>
      </trkpt>
      <trkpt lat="45.23136" lon="0.57165">
        <ele>241</ele>
        <time>2022-01-28T13:26:57Z</time>
      </trkpt>
      <trkpt lat="45.23143" lon="0.57173">
        <ele>240</ele>
        <time>2022-01-28T13:27:04Z</time>
      </trkpt>
      <trkpt lat="45.2315" lon="0.57182">
        <ele>238</ele>
        <time>2022-01-28T13:27:11Z</time>
      </trkpt>
      <trkpt lat="45.23157" lon="0.57193">
        <ele>236</ele>
        <time>2022-01-28T13:27:19Z</time>
      </trkpt>
      <trkpt lat="45.23163" lon="0.57204">
        <ele>236</ele>
        <time>2022-01-28T13:27:26Z</time>
      </trkpt>
      <trkpt lat="45.23169" lon="0.57215">
        <ele>234</ele>
        <time>2022-01-28T13:27:35Z</time>
      </trkpt>
      <trkpt lat="45.23175" lon="0.57225">
        <ele>233</ele>
        <time>2022-01-28T13:27:42Z</time>
      </trkpt>
      <trkpt lat="45.23181" lon="0.57235">
        <ele>232</ele>
        <time>2022-01-28T13:27:49Z</time>
      </trkpt>
      <trkpt lat="45.23188" lon="0.57247">
        <ele>232</ele>
        <time>2022-01-28T13:27:57Z</time>
      </trkpt>
      <trkpt lat="45.23194" lon="0.57258">
        <ele>233</ele>
        <time>2022-01-28T13:28:06Z</time>
      </trkpt>
      <trkpt lat="45.23201" lon="0.57267">
        <ele>235</ele>
        <time>2022-01-28T13:28:14Z</time>
      </trkpt>
      <trkpt lat="45.23207" lon="0.57277">
        <ele>234</ele>
        <time>2022-01-28T13:28:20Z</time>
      </trkpt>
      <trkpt lat="45.23212" lon="0.57288">
        <ele>234</ele>
        <time>2022-01-28T13:28:28Z</time>
      </trkpt>
      <trkpt lat="45.23219" lon="0.57298">
        <ele>233</ele>
        <time>2022-01-28T13:28:34Z</time>
      </trkpt>
      <trkpt lat="45.23226" lon="0.57309">
        <ele>231</ele>
        <time>2022-01-28T13:28:41Z</time>
      </trkpt>
      <trkpt lat="45.23232" lon="0.57319">
        <ele>232</ele>
        <time>2022-01-28T13:28:48Z</time>
      </trkpt>
      <trkpt lat="45.23239" lon="0.5733">
        <ele>232</ele>
        <time>2022-01-28T13:28:56Z</time>
      </trkpt>
      <trkpt lat="45.23246" lon="0.57339">
        <ele>230</ele>
        <time>2022-01-28T13:29:04Z</time>
      </trkpt>
      <trkpt lat="45.23253" lon="0.57348">
        <ele>230</ele>
        <time>2022-01-28T13:29:11Z</time>
      </trkpt>
      <trkpt lat="45.2326" lon="0.57357">
        <ele>231</ele>
        <time>2022-01-28T13:29:19Z</time>
      </trkpt>
      <trkpt lat="45.23268" lon="0.57366">
        <ele>229</ele>
        <time>2022-01-28T13:29:28Z</time>
      </trkpt>
      <trkpt lat="45.23277" lon="0.57373">
        <ele>227</ele>
        <time>2022-01-28T13:29:37Z</time>
      </trkpt>
      <trkpt lat="45.23283" lon="0.57382">
        <ele>226</ele>
        <time>2022-01-28T13:29:45Z</time>
      </trkpt>
      <trkpt lat="45.2329" lon="0.57393">
        <ele>226</ele>
        <time>2022-01-28T13:29:54Z</time>
      </trkpt>
      <trkpt lat="45.23296" lon="0.57402">
        <ele>225</ele>
        <time>2022-01-28T13:30:02Z</time>
      </trkpt>
      <trkpt lat="45.23303" lon="0.57411">
        <ele>224</ele>
        <time>2022-01-28T13:30:10Z</time>
      </trkpt>
      <trkpt lat="45.23311" lon="0.5742">
        <ele>223</ele>
        <time>2022-01-28T13:30:19Z</time>
      </trkpt>
      <trkpt lat="45.23318" lon="0.57429">
        <ele>221</ele>
        <time>2022-01-28T13:30:26Z</time>
      </trkpt>
      <trkpt lat="45.23326" lon="0.57437">
        <ele>220</ele>
        <time>2022-01-28T13:30:37Z</time>
      </trkpt>
      <trkpt lat="45.23331" lon="0.57448">
        <ele>219</ele>
        <time>2022-01-28T13:30:47Z</time>
      </trkpt>
      <trkpt lat="45.23337" lon="0.57459">
        <ele>217</ele>
        <time>2022-01-28T13:30:55Z</time>
      </trkpt>
      <trkpt lat="45.23343" lon="0.5747">
        <ele>215</ele>
        <time>2022-01-28T13:31:01Z</time>
      </trkpt>
      <trkpt lat="45.23348" lon="0.57481">
        <ele>214</ele>
        <time>2022-01-28T13:31:08Z</time>
      </trkpt>
      <trkpt lat="45.23351" lon="0.57493">
        <ele>214</ele>
        <time>2022-01-28T13:31:15Z</time>
      </trkpt>
      <trkpt lat="45.23354" lon="0.57507">
        <ele>216</ele>
        <time>2022-01-28T13:31:24Z</time>
      </trkpt>
      <trkpt lat="45.23359" lon="0.57518">
        <ele>216</ele>
        <time>2022-01-28T13:31:30Z</time>
      </trkpt>
      <trkpt lat="45.23362" lon="0.57532">
        <ele>218</ele>
        <time>2022-01-28T13:31:38Z</time>
      </trkpt>
      <trkpt lat="45.23364" lon="0.57546">
        <ele>220</ele>
        <time>2022-01-28T13:31:46Z</time>
      </trkpt>
      <trkpt lat="45.23365" lon="0.5756">
        <ele>221</ele>
        <time>2022-01-28T13:31:54Z</time>
      </trkpt>
      <trkpt lat="45.23368" lon="0.57572">
        <ele>222</ele>
        <time>2022-01-28T13:32:02Z</time>
      </trkpt>
      <trkpt lat="45.23372" lon="0.57585">
        <ele>220</ele>
        <time>2022-01-28T13:32:10Z</time>
      </trkpt>
      <trkpt lat="45.23374" lon="0.57598">
        <ele>222</ele>
        <time>2022-01-28T13:32:17Z</time>
      </trkpt>
      <trkpt lat="45.23373" lon="0.57612">
        <ele>222</ele>
        <time>2022-01-28T13:32:25Z</time>
      </trkpt>
      <trkpt lat="45.23372" lon="0.57625">
        <ele>226</ele>
        <time>2022-01-28T13:32:33Z</time>
      </trkpt>
      <trkpt lat="45.23371" lon="0.57638">
        <ele>228</ele>
        <time>2022-01-28T13:32:41Z</time>
      </trkpt>
      <trkpt lat="45.2337" lon="0.57651">
        <ele>229</ele>
        <time>2022-01-28T13:32:48Z</time>
      </trkpt>
      <trkpt lat="45.23369" lon="0.57665">
        <ele>231</ele>
        <time>2022-01-28T13:32:57Z</time>
      </trkpt>
      <trkpt lat="45.23369" lon="0.57678">
        <ele>231</ele>
        <time>2022-01-28T13:33:05Z</time>
      </trkpt>
      <trkpt lat="45.23372" lon="0.57693">
        <ele>231</ele>
        <time>2022-01-28T13:33:18Z</time>
      </trkpt>
      <trkpt lat="45.2337" lon="0.57705">
        <ele>231</ele>
        <time>2022-01-28T13:33:25Z</time>
      </trkpt>
      <trkpt lat="45.23367" lon="0.57718">
        <ele>231</ele>
        <time>2022-01-28T13:33:33Z</time>
      </trkpt>
      <trkpt lat="45.23365" lon="0.57731">
        <ele>229</ele>
        <time>2022-01-28T13:33:40Z</time>
      </trkpt>
      <trkpt lat="45.23364" lon="0.57745">
        <ele>230</ele>
        <time>2022-01-28T13:33:48Z</time>
      </trkpt>
      <trkpt lat="45.23365" lon="0.57758">
        <ele>227</ele>
        <time>2022-01-28T13:33:58Z</time>
      </trkpt>
      <trkpt lat="45.23366" lon="0.57772">
        <ele>226</ele>
        <time>2022-01-28T13:34:05Z</time>
      </trkpt>
      <trkpt lat="45.23368" lon="0.57786">
        <ele>225</ele>
        <time>2022-01-28T13:34:14Z</time>
      </trkpt>
      <trkpt lat="45.23373" lon="0.57799">
        <ele>222</ele>
        <time>2022-01-28T13:34:21Z</time>
      </trkpt>
      <trkpt lat="45.23376" lon="0.57812">
        <ele>220</ele>
        <time>2022-01-28T13:34:29Z</time>
      </trkpt>
      <trkpt lat="45.23378" lon="0.57825">
        <ele>220</ele>
        <time>2022-01-28T13:34:38Z</time>
      </trkpt>
      <trkpt lat="45.23382" lon="0.57837">
        <ele>218</ele>
        <time>2022-01-28T13:34:46Z</time>
      </trkpt>
      <trkpt lat="45.23388" lon="0.57848">
        <ele>216</ele>
        <time>2022-01-28T13:34:54Z</time>
      </trkpt>
      <trkpt lat="45.23394" lon="0.57859">
        <ele>215</ele>
        <time>2022-01-28T13:35:04Z</time>
      </trkpt>
      <trkpt lat="45.23398" lon="0.57871">
        <ele>216</ele>
        <time>2022-01-28T13:35:15Z</time>
      </trkpt>
      <trkpt lat="45.23404" lon="0.57881">
        <ele>218</ele>
        <time>2022-01-28T13:35:24Z</time>
      </trkpt>
      <trkpt lat="45.2341" lon="0.57892">
        <ele>218</ele>
        <time>2022-01-28T13:35:33Z</time>
      </trkpt>
      <trkpt lat="45.23415" lon="0.57903">
        <ele>216</ele>
        <time>2022-01-28T13:35:42Z</time>
      </trkpt>
      <trkpt lat="45.23421" lon="0.57915">
        <ele>216</ele>
        <time>2022-01-28T13:36:00Z</time>
      </trkpt>
      <trkpt lat="45.23427" lon="0.57926">
        <ele>215</ele>
        <time>2022-01-28T13:36:09Z</time>
      </trkpt>
      <trkpt lat="45.23432" lon="0.57936">
        <ele>218</ele>
        <time>2022-01-28T13:36:17Z</time>
      </trkpt>
      <trkpt lat="45.23439" lon="0.57945">
        <ele>223</ele>
        <time>2022-01-28T13:36:26Z</time>
      </trkpt>
      <trkpt lat="45.23445" lon="0.57956">
        <ele>226</ele>
        <time>2022-01-28T13:36:35Z</time>
      </trkpt>
      <trkpt lat="45.23456" lon="0.57954">
        <ele>230</ele>
        <time>2022-01-28T13:36:55Z</time>
      </trkpt>
      <trkpt lat="45.23464" lon="0.57946">
        <ele>230</ele>
        <time>2022-01-28T13:37:04Z</time>
      </trkpt>
      <trkpt lat="45.23472" lon="0.57937">
        <ele>231</ele>
        <time>2022-01-28T13:37:13Z</time>
      </trkpt>
      <trkpt lat="45.23479" lon="0.57929">
        <ele>231</ele>
        <time>2022-01-28T13:37:21Z</time>
      </trkpt>
      <trkpt lat="45.23487" lon="0.5792">
        <ele>231</ele>
        <time>2022-01-28T13:37:29Z</time>
      </trkpt>
      <trkpt lat="45.23493" lon="0.57911">
        <ele>230</ele>
        <time>2022-01-28T13:37:37Z</time>
      </trkpt>
      <trkpt lat="45.23501" lon="0.57901">
        <ele>231</ele>
        <time>2022-01-28T13:37:47Z</time>
      </trkpt>
      <trkpt lat="45.23507" lon="0.57892">
        <ele>230</ele>
        <time>2022-01-28T13:37:57Z</time>
      </trkpt>
      <trkpt lat="45.23514" lon="0.57882">
        <ele>230</ele>
        <time>2022-01-28T13:38:07Z</time>
      </trkpt>
      <trkpt lat="45.23521" lon="0.57874">
        <ele>231</ele>
        <time>2022-01-28T13:38:17Z</time>
      </trkpt>
      <trkpt lat="45.23528" lon="0.57864">
        <ele>232</ele>
        <time>2022-01-28T13:38:27Z</time>
      </trkpt>
      <trkpt lat="45.23535" lon="0.57857">
        <ele>232</ele>
        <time>2022-01-28T13:38:36Z</time>
      </trkpt>
      <trkpt lat="45.23542" lon="0.57847">
        <ele>233</ele>
        <time>2022-01-28T13:38:44Z</time>
      </trkpt>
      <trkpt lat="45.23548" lon="0.57838">
        <ele>233</ele>
        <time>2022-01-28T13:38:53Z</time>
      </trkpt>
      <trkpt lat="45.23555" lon="0.57828">
        <ele>232</ele>
        <time>2022-01-28T13:39:02Z</time>
      </trkpt>
      <trkpt lat="45.23561" lon="0.57819">
        <ele>233</ele>
        <time>2022-01-28T13:39:11Z</time>
      </trkpt>
      <trkpt lat="45.23569" lon="0.57811">
        <ele>233</ele>
        <time>2022-01-28T13:39:19Z</time>
      </trkpt>
      <trkpt lat="45.23574" lon="0.57799">
        <ele>235</ele>
        <time>2022-01-28T13:39:30Z</time>
      </trkpt>
      <trkpt lat="45.23578" lon="0.57786">
        <ele>236</ele>
        <time>2022-01-28T13:39:40Z</time>
      </trkpt>
      <trkpt lat="45.23582" lon="0.57774">
        <ele>236</ele>
        <time>2022-01-28T13:39:49Z</time>
      </trkpt>
      <trkpt lat="45.2358" lon="0.57761">
        <ele>237</ele>
        <time>2022-01-28T13:39:58Z</time>
      </trkpt>
      <trkpt lat="45.23578" lon="0.57747">
        <ele>237</ele>
        <time>2022-01-28T13:40:06Z</time>
      </trkpt>
      <trkpt lat="45.23579" lon="0.57734">
        <ele>241</ele>
        <time>2022-01-28T13:40:15Z</time>
      </trkpt>
      <trkpt lat="45.2358" lon="0.5772">
        <ele>240</ele>
        <time>2022-01-28T13:40:22Z</time>
      </trkpt>
      <trkpt lat="45.23582" lon="0.57706">
        <ele>242</ele>
        <time>2022-01-28T13:40:29Z</time>
      </trkpt>
      <trkpt lat="45.23583" lon="0.57693">
        <ele>246</ele>
        <time>2022-01-28T13:40:37Z</time>
      </trkpt>
      <trkpt lat="45.23584" lon="0.5768">
        <ele>246</ele>
        <time>2022-01-28T13:40:46Z</time>
      </trkpt>
      <trkpt lat="45.23581" lon="0.57666">
        <ele>247</ele>
        <time>2022-01-28T13:40:55Z</time>
      </trkpt>
      <trkpt lat="45.2358" lon="0.57652">
        <ele>247</ele>
        <time>2022-01-28T13:41:04Z</time>
      </trkpt>
      <trkpt lat="45.2358" lon="0.57636">
        <ele>247</ele>
        <time>2022-01-28T13:41:16Z</time>
      </trkpt>
      <trkpt lat="45.23583" lon="0.57623">
        <ele>247</ele>
        <time>2022-01-28T13:41:52Z</time>
      </trkpt>
      <trkpt lat="45.23591" lon="0.57616">
        <ele>238</ele>
        <time>2022-01-28T13:42:49Z</time>
      </trkpt>
      <trkpt lat="45.23592" lon="0.57603">
        <ele>235</ele>
        <time>2022-01-28T13:43:45Z</time>
      </trkpt>
      <trkpt lat="45.23593" lon="0.5759">
        <ele>233</ele>
        <time>2022-01-28T13:44:11Z</time>
      </trkpt>
      <trkpt lat="45.2359" lon="0.57578">
        <ele>237</ele>
        <time>2022-01-28T13:44:33Z</time>
      </trkpt>
      <trkpt lat="45.23586" lon="0.57566">
        <ele>234</ele>
        <time>2022-01-28T13:44:41Z</time>
      </trkpt>
      <trkpt lat="45.23578" lon="0.57559">
        <ele>233</ele>
        <time>2022-01-28T13:45:01Z</time>
      </trkpt>
      <trkpt lat="45.23575" lon="0.57546">
        <ele>232</ele>
        <time>2022-01-28T13:45:15Z</time>
      </trkpt>
      <trkpt lat="45.23569" lon="0.57536">
        <ele>230</ele>
        <time>2022-01-28T13:46:19Z</time>
      </trkpt>
      <trkpt lat="45.2356" lon="0.57529">
        <ele>234</ele>
        <time>2022-01-28T13:47:50Z</time>
      </trkpt>
      <trkpt lat="45.23556" lon="0.57517">
        <ele>234</ele>
        <time>2022-01-28T13:48:00Z</time>
      </trkpt>
      <trkpt lat="45.23552" lon="0.57505">
        <ele>228</ele>
        <time>2022-01-28T13:48:21Z</time>
      </trkpt>
      <trkpt lat="45.23547" lon="0.57494">
        <ele>229</ele>
        <time>2022-01-28T13:48:52Z</time>
      </trkpt>
      <trkpt lat="45.23541" lon="0.57484">
        <ele>232</ele>
        <time>2022-01-28T13:49:08Z</time>
      </trkpt>
      <trkpt lat="45.23536" lon="0.57472">
        <ele>233</ele>
        <time>2022-01-28T13:49:16Z</time>
      </trkpt>
      <trkpt lat="45.23526" lon="0.57474">
        <ele>234</ele>
        <time>2022-01-28T13:49:30Z</time>
      </trkpt>
      <trkpt lat="45.23525" lon="0.57465">
        <ele>238</ele>
        <time>2022-01-28T13:51:31Z</time>
      </trkpt>
      <trkpt lat="45.23523" lon="0.57459">
        <ele>231</ele>
        <time>2022-01-28T13:53:32Z</time>
      </trkpt>
      <trkpt lat="45.23519" lon="0.57446">
        <ele>233</ele>
        <time>2022-01-28T13:54:09Z</time>
      </trkpt>
      <trkpt lat="45.23512" lon="0.57437">
        <ele>233</ele>
        <time>2022-01-28T13:54:18Z</time>
      </trkpt>
      <trkpt lat="45.2351" lon="0.57424">
        <ele>233</ele>
        <time>2022-01-28T13:54:27Z</time>
      </trkpt>
      <trkpt lat="45.23508" lon="0.5741">
        <ele>230</ele>
        <time>2022-01-28T13:54:37Z</time>
      </trkpt>
      <trkpt lat="45.23504" lon="0.57396">
        <ele>232</ele>
        <time>2022-01-28T13:54:44Z</time>
      </trkpt>
      <trkpt lat="45.23502" lon="0.57382">
        <ele>234</ele>
        <time>2022-01-28T13:54:52Z</time>
      </trkpt>
      <trkpt lat="45.23502" lon="0.57369">
        <ele>232</ele>
        <time>2022-01-28T13:55:01Z</time>
      </trkpt>
      <trkpt lat="45.23498" lon="0.57356">
        <ele>233</ele>
        <time>2022-01-28T13:55:11Z</time>
      </trkpt>
      <trkpt lat="45.235" lon="0.57342">
        <ele>232</ele>
        <time>2022-01-28T13:55:20Z</time>
      </trkpt>
      <trkpt lat="45.23509" lon="0.57338">
        <ele>234</ele>
        <time>2022-01-28T13:55:26Z</time>
      </trkpt>
      <trkpt lat="45.23519" lon="0.57337">
        <ele>236</ele>
        <time>2022-01-28T13:55:35Z</time>
      </trkpt>
      <trkpt lat="45.23528" lon="0.57334">
        <ele>238</ele>
        <time>2022-01-28T13:55:42Z</time>
      </trkpt>
      <trkpt lat="45.23537" lon="0.5733">
        <ele>240</ele>
        <time>2022-01-28T13:55:50Z</time>
      </trkpt>
      <trkpt lat="45.23546" lon="0.57327">
        <ele>242</ele>
        <time>2022-01-28T13:55:58Z</time>
      </trkpt>
      <trkpt lat="45.23555" lon="0.57324">
        <ele>240</ele>
        <time>2022-01-28T13:56:05Z</time>
      </trkpt>
      <trkpt lat="45.23565" lon="0.57321">
        <ele>242</ele>
        <time>2022-01-28T13:56:14Z</time>
      </trkpt>
      <trkpt lat="45.23574" lon="0.57319">
        <ele>241</ele>
        <time>2022-01-28T13:56:24Z</time>
      </trkpt>
      <trkpt lat="45.23584" lon="0.57315">
        <ele>242</ele>
        <time>2022-01-28T13:56:33Z</time>
      </trkpt>
      <trkpt lat="45.23593" lon="0.57313">
        <ele>244</ele>
        <time>2022-01-28T13:56:41Z</time>
      </trkpt>
      <trkpt lat="45.23602" lon="0.57308">
        <ele>243</ele>
        <time>2022-01-28T13:56:50Z</time>
      </trkpt>
      <trkpt lat="45.23611" lon="0.57305">
        <ele>241</ele>
        <time>2022-01-28T13:56:59Z</time>
      </trkpt>
      <trkpt lat="45.23619" lon="0.57299">
        <ele>242</ele>
        <time>2022-01-28T13:57:10Z</time>
      </trkpt>
      <trkpt lat="45.23627" lon="0.57292">
        <ele>243</ele>
        <time>2022-01-28T13:57:20Z</time>
      </trkpt>
      <trkpt lat="45.23636" lon="0.57285">
        <ele>244</ele>
        <time>2022-01-28T13:57:30Z</time>
      </trkpt>
      <trkpt lat="45.23643" lon="0.57277">
        <ele>243</ele>
        <time>2022-01-28T13:57:39Z</time>
      </trkpt>
      <trkpt lat="45.23643" lon="0.57264">
        <ele>244</ele>
        <time>2022-01-28T13:57:47Z</time>
      </trkpt>
      <trkpt lat="45.23643" lon="0.5725">
        <ele>244</ele>
        <time>2022-01-28T13:57:55Z</time>
      </trkpt>
      <trkpt lat="45.23646" lon="0.57237">
        <ele>244</ele>
        <time>2022-01-28T13:58:03Z</time>
      </trkpt>
      <trkpt lat="45.23651" lon="0.57225">
        <ele>244</ele>
        <time>2022-01-28T13:58:10Z</time>
      </trkpt>
      <trkpt lat="45.23659" lon="0.57217">
        <ele>244</ele>
        <time>2022-01-28T13:58:18Z</time>
      </trkpt>
      <trkpt lat="45.23667" lon="0.57211">
        <ele>244</ele>
        <time>2022-01-28T13:58:26Z</time>
      </trkpt>
      <trkpt lat="45.23675" lon="0.57205">
        <ele>246</ele>
        <time>2022-01-28T13:58:34Z</time>
      </trkpt>
      <trkpt lat="45.23684" lon="0.57198">
        <ele>246</ele>
        <time>2022-01-28T13:58:43Z</time>
      </trkpt>
      <trkpt lat="45.23691" lon="0.57189">
        <ele>249</ele>
        <time>2022-01-28T13:58:52Z</time>
      </trkpt>
      <trkpt lat="45.23686" lon="0.57179">
        <ele>249</ele>
        <time>2022-01-28T13:59:18Z</time>
      </trkpt>
      <trkpt lat="45.23681" lon="0.57167">
        <ele>248</ele>
        <time>2022-01-28T13:59:27Z</time>
      </trkpt>
      <trkpt lat="45.23675" lon="0.57157">
        <ele>249</ele>
        <time>2022-01-28T13:59:36Z</time>
      </trkpt>
      <trkpt lat="45.2367" lon="0.57147">
        <ele>249</ele>
        <time>2022-01-28T13:59:43Z</time>
      </trkpt>
      <trkpt lat="45.23664" lon="0.57134">
        <ele>246</ele>
        <time>2022-01-28T13:59:51Z</time>
      </trkpt>
      <trkpt lat="45.23659" lon="0.57122">
        <ele>245</ele>
        <time>2022-01-28T13:59:59Z</time>
      </trkpt>
      <trkpt lat="45.23654" lon="0.57111">
        <ele>245</ele>
        <time>2022-01-28T14:00:07Z</time>
      </trkpt>
      <trkpt lat="45.2365" lon="0.57097">
        <ele>246</ele>
        <time>2022-01-28T14:00:16Z</time>
      </trkpt>
      <trkpt lat="45.23645" lon="0.57085">
        <ele>244</ele>
        <time>2022-01-28T14:00:23Z</time>
      </trkpt>
      <trkpt lat="45.23641" lon="0.57073">
        <ele>244</ele>
        <time>2022-01-28T14:00:31Z</time>
      </trkpt>
      <trkpt lat="45.23636" lon="0.57061">
        <ele>244</ele>
        <time>2022-01-28T14:00:39Z</time>
      </trkpt>
      <trkpt lat="45.2363" lon="0.57049">
        <ele>244</ele>
        <time>2022-01-28T14:00:47Z</time>
      </trkpt>
      <trkpt lat="45.23625" lon="0.57037">
        <ele>244</ele>
        <time>2022-01-28T14:00:56Z</time>
      </trkpt>
      <trkpt lat="45.23621" lon="0.57025">
        <ele>243</ele>
        <time>2022-01-28T14:01:04Z</time>
      </trkpt>
      <trkpt lat="45.23622" lon="0.57012">
        <ele>243</ele>
        <time>2022-01-28T14:01:12Z</time>
      </trkpt>
      <trkpt lat="45.23632" lon="0.57009">
        <ele>245</ele>
        <time>2022-01-28T14:01:19Z</time>
      </trkpt>
      <trkpt lat="45.23641" lon="0.57005">
        <ele>245</ele>
        <time>2022-01-28T14:01:26Z</time>
      </trkpt>
      <trkpt lat="45.23649" lon="0.57">
        <ele>244</ele>
        <time>2022-01-28T14:01:38Z</time>
      </trkpt>
      <trkpt lat="45.2366" lon="0.56999">
        <ele>244</ele>
        <time>2022-01-28T14:01:45Z</time>
      </trkpt>
      <trkpt lat="45.23669" lon="0.57003">
        <ele>244</ele>
        <time>2022-01-28T14:01:52Z</time>
      </trkpt>
      <trkpt lat="45.23677" lon="0.57011">
        <ele>242</ele>
        <time>2022-01-28T14:02:00Z</time>
      </trkpt>
      <trkpt lat="45.23686" lon="0.57017">
        <ele>242</ele>
        <time>2022-01-28T14:02:07Z</time>
      </trkpt>
      <trkpt lat="45.23694" lon="0.57022">
        <ele>242</ele>
        <time>2022-01-28T14:02:14Z</time>
      </trkpt>
      <trkpt lat="45.23702" lon="0.57029">
        <ele>242</ele>
        <time>2022-01-28T14:02:21Z</time>
      </trkpt>
      <trkpt lat="45.23711" lon="0.57035">
        <ele>241</ele>
        <time>2022-01-28T14:02:29Z</time>
      </trkpt>
      <trkpt lat="45.23719" lon="0.57041">
        <ele>240</ele>
        <time>2022-01-28T14:02:37Z</time>
      </trkpt>
      <trkpt lat="45.23728" lon="0.57047">
        <ele>241</ele>
        <time>2022-01-28T14:02:45Z</time>
      </trkpt>
      <trkpt lat="45.23738" lon="0.57047">
        <ele>240</ele>
        <time>2022-01-28T14:02:55Z</time>
      </trkpt>
      <trkpt lat="45.23742" lon="0.57035">
        <ele>239</ele>
        <time>2022-01-28T14:03:14Z</time>
      </trkpt>
      <trkpt lat="45.23743" lon="0.5702">
        <ele>239</ele>
        <time>2022-01-28T14:03:23Z</time>
      </trkpt>
      <trkpt lat="45.23746" lon="0.57007">
        <ele>238</ele>
        <time>2022-01-28T14:03:31Z</time>
      </trkpt>
      <trkpt lat="45.2375" lon="0.56994">
        <ele>236</ele>
        <time>2022-01-28T14:03:39Z</time>
      </trkpt>
      <trkpt lat="45.2375" lon="0.5698">
        <ele>237</ele>
        <time>2022-01-28T14:03:47Z</time>
      </trkpt>
      <trkpt lat="45.23748" lon="0.56967">
        <ele>240</ele>
        <time>2022-01-28T14:04:02Z</time>
      </trkpt>
      <trkpt lat="45.23747" lon="0.56954">
        <ele>240</ele>
        <time>2022-01-28T14:04:08Z</time>
      </trkpt>
      <trkpt lat="45.23748" lon="0.56941">
        <ele>240</ele>
        <time>2022-01-28T14:04:18Z</time>
      </trkpt>
      <trkpt lat="45.23751" lon="0.56928">
        <ele>241</ele>
        <time>2022-01-28T14:04:26Z</time>
      </trkpt>
      <trkpt lat="45.23753" lon="0.56914">
        <ele>240</ele>
        <time>2022-01-28T14:04:34Z</time>
      </trkpt>
      <trkpt lat="45.23756" lon="0.56901">
        <ele>241</ele>
        <time>2022-01-28T14:04:45Z</time>
      </trkpt>
      <trkpt lat="45.23757" lon="0.56886">
        <ele>240</ele>
        <time>2022-01-28T14:04:54Z</time>
      </trkpt>
      <trkpt lat="45.23758" lon="0.56873">
        <ele>240</ele>
        <time>2022-01-28T14:05:02Z</time>
      </trkpt>
      <trkpt lat="45.23759" lon="0.5686">
        <ele>239</ele>
        <time>2022-01-28T14:05:10Z</time>
      </trkpt>
      <trkpt lat="45.23761" lon="0.56846">
        <ele>241</ele>
        <time>2022-01-28T14:05:20Z</time>
      </trkpt>
      <trkpt lat="45.23768" lon="0.56838">
        <ele>240</ele>
        <time>2022-01-28T14:05:35Z</time>
      </trkpt>
      <trkpt lat="45.23776" lon="0.56832">
        <ele>240</ele>
        <time>2022-01-28T14:05:43Z</time>
      </trkpt>
      <trkpt lat="45.23785" lon="0.56825">
        <ele>241</ele>
        <time>2022-01-28T14:05:51Z</time>
      </trkpt>
      <trkpt lat="45.23792" lon="0.56816">
        <ele>240</ele>
        <time>2022-01-28T14:05:58Z</time>
      </trkpt>
      <trkpt lat="45.238" lon="0.5681">
        <ele>239</ele>
        <time>2022-01-28T14:06:06Z</time>
      </trkpt>
      <trkpt lat="45.23809" lon="0.56805">
        <ele>238</ele>
        <time>2022-01-28T14:06:14Z</time>
      </trkpt>
      <trkpt lat="45.23819" lon="0.56799">
        <ele>237</ele>
        <time>2022-01-28T14:06:22Z</time>
      </trkpt>
      <trkpt lat="45.23829" lon="0.56794">
        <ele>239</ele>
        <time>2022-01-28T14:06:30Z</time>
      </trkpt>
      <trkpt lat="45.23838" lon="0.56788">
        <ele>237</ele>
        <time>2022-01-28T14:06:39Z</time>
      </trkpt>
      <trkpt lat="45.23846" lon="0.56782">
        <ele>236</ele>
        <time>2022-01-28T14:06:45Z</time>
      </trkpt>
      <trkpt lat="45.23853" lon="0.56774">
        <ele>233</ele>
        <time>2022-01-28T14:06:53Z</time>
      </trkpt>
      <trkpt lat="45.23862" lon="0.56767">
        <ele>232</ele>
        <time>2022-01-28T14:07:03Z</time>
      </trkpt>
      <trkpt lat="45.23871" lon="0.56766">
        <ele>231</ele>
        <time>2022-01-28T14:07:10Z</time>
      </trkpt>
      <trkpt lat="45.23881" lon="0.56762">
        <ele>230</ele>
        <time>2022-01-28T14:07:18Z</time>
      </trkpt>
      <trkpt lat="45.23889" lon="0.56756">
        <ele>230</ele>
        <time>2022-01-28T14:07:25Z</time>
      </trkpt>
      <trkpt lat="45.23898" lon="0.56751">
        <ele>233</ele>
        <time>2022-01-28T14:07:33Z</time>
      </trkpt>
      <trkpt lat="45.23908" lon="0.5675">
        <ele>232</ele>
        <time>2022-01-28T14:07:40Z</time>
      </trkpt>
      <trkpt lat="45.23917" lon="0.56746">
        <ele>230</ele>
        <time>2022-01-28T14:07:48Z</time>
      </trkpt>
      <trkpt lat="45.23927" lon="0.56744">
        <ele>230</ele>
        <time>2022-01-28T14:07:56Z</time>
      </trkpt>
      <trkpt lat="45.23936" lon="0.56739">
        <ele>230</ele>
        <time>2022-01-28T14:08:04Z</time>
      </trkpt>
      <trkpt lat="45.23945" lon="0.56737">
        <ele>229</ele>
        <time>2022-01-28T14:08:12Z</time>
      </trkpt>
      <trkpt lat="45.23954" lon="0.56733">
        <ele>228</ele>
        <time>2022-01-28T14:08:20Z</time>
      </trkpt>
      <trkpt lat="45.23964" lon="0.56729">
        <ele>226</ele>
        <time>2022-01-28T14:08:29Z</time>
      </trkpt>
      <trkpt lat="45.23973" lon="0.56725">
        <ele>228</ele>
        <time>2022-01-28T14:08:37Z</time>
      </trkpt>
      <trkpt lat="45.23982" lon="0.56722">
        <ele>227</ele>
        <time>2022-01-28T14:08:45Z</time>
      </trkpt>
      <trkpt lat="45.23991" lon="0.56717">
        <ele>227</ele>
        <time>2022-01-28T14:08:53Z</time>
      </trkpt>
      <trkpt lat="45.24" lon="0.56713">
        <ele>225</ele>
        <time>2022-01-28T14:09:02Z</time>
      </trkpt>
      <trkpt lat="45.24008" lon="0.56707">
        <ele>229</ele>
        <time>2022-01-28T14:10:13Z</time>
      </trkpt>
      <trkpt lat="45.24016" lon="0.56702">
        <ele>230</ele>
        <time>2022-01-28T14:10:23Z</time>
      </trkpt>
      <trkpt lat="45.24025" lon="0.56698">
        <ele>231</ele>
        <time>2022-01-28T14:10:31Z</time>
      </trkpt>
      <trkpt lat="45.24033" lon="0.56691">
        <ele>230</ele>
        <time>2022-01-28T14:10:39Z</time>
      </trkpt>
      <trkpt lat="45.24042" lon="0.56686">
        <ele>230</ele>
        <time>2022-01-28T14:10:46Z</time>
      </trkpt>
      <trkpt lat="45.24051" lon="0.56681">
        <ele>232</ele>
        <time>2022-01-28T14:10:54Z</time>
      </trkpt>
      <trkpt lat="45.24059" lon="0.56677">
        <ele>233</ele>
        <time>2022-01-28T14:11:01Z</time>
      </trkpt>
      <trkpt lat="45.24069" lon="0.56675">
        <ele>234</ele>
        <time>2022-01-28T14:11:10Z</time>
      </trkpt>
      <trkpt lat="45.24078" lon="0.5667">
        <ele>233</ele>
        <time>2022-01-28T14:11:18Z</time>
      </trkpt>
      <trkpt lat="45.24088" lon="0.56668">
        <ele>232</ele>
        <time>2022-01-28T14:11:26Z</time>
      </trkpt>
      <trkpt lat="45.24083" lon="0.56655">
        <ele>231</ele>
        <time>2022-01-28T14:12:28Z</time>
      </trkpt>
      <trkpt lat="45.24078" lon="0.56643">
        <ele>229</ele>
        <time>2022-01-28T14:12:38Z</time>
      </trkpt>
      <trkpt lat="45.24074" lon="0.5663">
        <ele>229</ele>
        <time>2022-01-28T14:12:47Z</time>
      </trkpt>
      <trkpt lat="45.24068" lon="0.56619">
        <ele>227</ele>
        <time>2022-01-28T14:12:55Z</time>
      </trkpt>
      <trkpt lat="45.24064" lon="0.56606">
        <ele>226</ele>
        <time>2022-01-28T14:13:02Z</time>
      </trkpt>
      <trkpt lat="45.2406" lon="0.56595">
        <ele>225</ele>
        <time>2022-01-28T14:13:09Z</time>
      </trkpt>
      <trkpt lat="45.24055" lon="0.56583">
        <ele>225</ele>
        <time>2022-01-28T14:13:16Z</time>
      </trkpt>
      <trkpt lat="45.24052" lon="0.56571">
        <ele>224</ele>
        <time>2022-01-28T14:13:23Z</time>
      </trkpt>
      <trkpt lat="45.24049" lon="0.56558">
        <ele>222</ele>
        <time>2022-01-28T14:13:31Z</time>
      </trkpt>
      <trkpt lat="45.24047" lon="0.56546">
        <ele>221</ele>
        <time>2022-01-28T14:13:38Z</time>
      </trkpt>
      <trkpt lat="45.24044" lon="0.56532">
        <ele>220</ele>
        <time>2022-01-28T14:13:47Z</time>
      </trkpt>
      <trkpt lat="45.24041" lon="0.56519">
        <ele>221</ele>
        <time>2022-01-28T14:13:55Z</time>
      </trkpt>
      <trkpt lat="45.2404" lon="0.56504">
        <ele>222</ele>
        <time>2022-01-28T14:14:04Z</time>
      </trkpt>
      <trkpt lat="45.24037" lon="0.56491">
        <ele>221</ele>
        <time>2022-01-28T14:14:12Z</time>
      </trkpt>
      <trkpt lat="45.24035" lon="0.56479">
        <ele>221</ele>
        <time>2022-01-28T14:14:19Z</time>
      </trkpt>
      <trkpt lat="45.24035" lon="0.56464">
        <ele>222</ele>
        <time>2022-01-28T14:14:27Z</time>
      </trkpt>
      <trkpt lat="45.24033" lon="0.56451">
        <ele>223</ele>
        <time>2022-01-28T14:14:34Z</time>
      </trkpt>
      <trkpt lat="45.24034" lon="0.56437">
        <ele>222</ele>
        <time>2022-01-28T14:14:42Z</time>
      </trkpt>
      <trkpt lat="45.24032" lon="0.56423">
        <ele>222</ele>
        <time>2022-01-28T14:14:49Z</time>
      </trkpt>
      <trkpt lat="45.2403" lon="0.56409">
        <ele>224</ele>
        <time>2022-01-28T14:14:57Z</time>
      </trkpt>
      <trkpt lat="45.24032" lon="0.56397">
        <ele>222</ele>
        <time>2022-01-28T14:15:05Z</time>
      </trkpt>
      <trkpt lat="45.24034" lon="0.56384">
        <ele>220</ele>
        <time>2022-01-28T14:15:14Z</time>
      </trkpt>
      <trkpt lat="45.24033" lon="0.56371">
        <ele>218</ele>
        <time>2022-01-28T14:15:23Z</time>
      </trkpt>
      <trkpt lat="45.24032" lon="0.56358">
        <ele>216</ele>
        <time>2022-01-28T14:15:33Z</time>
      </trkpt>
      <trkpt lat="45.2403" lon="0.56345">
        <ele>216</ele>
        <time>2022-01-28T14:15:44Z</time>
      </trkpt>
      <trkpt lat="45.24026" lon="0.56333">
        <ele>214</ele>
        <time>2022-01-28T14:15:52Z</time>
      </trkpt>
      <trkpt lat="45.2402" lon="0.56324">
        <ele>211</ele>
        <time>2022-01-28T14:16:02Z</time>
      </trkpt>
      <trkpt lat="45.24016" lon="0.56311">
        <ele>208</ele>
        <time>2022-01-28T14:16:10Z</time>
      </trkpt>
      <trkpt lat="45.24014" lon="0.56298">
        <ele>208</ele>
        <time>2022-01-28T14:16:17Z</time>
      </trkpt>
      <trkpt lat="45.24016" lon="0.56284">
        <ele>209</ele>
        <time>2022-01-28T14:16:26Z</time>
      </trkpt>
      <trkpt lat="45.24021" lon="0.56272">
        <ele>210</ele>
        <time>2022-01-28T14:16:34Z</time>
      </trkpt>
      <trkpt lat="45.24025" lon="0.56261">
        <ele>210</ele>
        <time>2022-01-28T14:16:43Z</time>
      </trkpt>
      <trkpt lat="45.24031" lon="0.5625">
        <ele>210</ele>
        <time>2022-01-28T14:16:51Z</time>
      </trkpt>
      <trkpt lat="45.24034" lon="0.56238">
        <ele>212</ele>
        <time>2022-01-28T14:17:04Z</time>
      </trkpt>
      <trkpt lat="45.24034" lon="0.56225">
        <ele>213</ele>
        <time>2022-01-28T14:17:11Z</time>
      </trkpt>
      <trkpt lat="45.24035" lon="0.56212">
        <ele>213</ele>
        <time>2022-01-28T14:17:19Z</time>
      </trkpt>
      <trkpt lat="45.24033" lon="0.56198">
        <ele>214</ele>
        <time>2022-01-28T14:17:28Z</time>
      </trkpt>
      <trkpt lat="45.24032" lon="0.56185">
        <ele>214</ele>
        <time>2022-01-28T14:17:38Z</time>
      </trkpt>
      <trkpt lat="45.2403" lon="0.56172">
        <ele>213</ele>
        <time>2022-01-28T14:17:46Z</time>
      </trkpt>
      <trkpt lat="45.2403" lon="0.56159">
        <ele>219</ele>
        <time>2022-01-28T14:18:08Z</time>
      </trkpt>
      <trkpt lat="45.24026" lon="0.56147">
        <ele>219</ele>
        <time>2022-01-28T14:18:34Z</time>
      </trkpt>
      <trkpt lat="45.24023" lon="0.56135">
        <ele>219</ele>
        <time>2022-01-28T14:20:26Z</time>
      </trkpt>
      <trkpt lat="45.24018" lon="0.56123">
        <ele>218</ele>
        <time>2022-01-28T14:20:34Z</time>
      </trkpt>
      <trkpt lat="45.24012" lon="0.56112">
        <ele>218</ele>
        <time>2022-01-28T14:20:42Z</time>
      </trkpt>
      <trkpt lat="45.24008" lon="0.56101">
        <ele>218</ele>
        <time>2022-01-28T14:20:50Z</time>
      </trkpt>
      <trkpt lat="45.24004" lon="0.56088">
        <ele>219</ele>
        <time>2022-01-28T14:20:59Z</time>
      </trkpt>
      <trkpt lat="45.24002" lon="0.56074">
        <ele>219</ele>
        <time>2022-01-28T14:21:07Z</time>
      </trkpt>
      <trkpt lat="45.23995" lon="0.56064">
        <ele>218</ele>
        <time>2022-01-28T14:21:17Z</time>
      </trkpt>
      <trkpt lat="45.23985" lon="0.56068">
        <ele>223</ele>
        <time>2022-01-28T14:21:26Z</time>
      </trkpt>
      <trkpt lat="45.23976" lon="0.56068">
        <ele>222</ele>
        <time>2022-01-28T14:21:36Z</time>
      </trkpt>
      <trkpt lat="45.23968" lon="0.5606">
        <ele>224</ele>
        <time>2022-01-28T14:21:45Z</time>
      </trkpt>
      <trkpt lat="45.23961" lon="0.5605">
        <ele>223</ele>
        <time>2022-01-28T14:21:52Z</time>
      </trkpt>
      <trkpt lat="45.23958" lon="0.56038">
        <ele>221</ele>
        <time>2022-01-28T14:22:00Z</time>
      </trkpt>
      <trkpt lat="45.23954" lon="0.56025">
        <ele>218</ele>
        <time>2022-01-28T14:22:08Z</time>
      </trkpt>
      <trkpt lat="45.23951" lon="0.56013">
        <ele>217</ele>
        <time>2022-01-28T14:22:15Z</time>
      </trkpt>
      <trkpt lat="45.23945" lon="0.56">
        <ele>215</ele>
        <time>2022-01-28T14:22:23Z</time>
      </trkpt>
      <trkpt lat="45.23937" lon="0.55992">
        <ele>213</ele>
        <time>2022-01-28T14:22:31Z</time>
      </trkpt>
      <trkpt lat="45.23931" lon="0.55982">
        <ele>212</ele>
        <time>2022-01-28T14:22:39Z</time>
      </trkpt>
      <trkpt lat="45.23921" lon="0.55986">
        <ele>210</ele>
        <time>2022-01-28T14:22:48Z</time>
      </trkpt>
      <trkpt lat="45.23913" lon="0.55991">
        <ele>210</ele>
        <time>2022-01-28T14:22:55Z</time>
      </trkpt>
      <trkpt lat="45.23903" lon="0.55996">
        <ele>210</ele>
        <time>2022-01-28T14:23:03Z</time>
      </trkpt>
      <trkpt lat="45.23893" lon="0.56">
        <ele>209</ele>
        <time>2022-01-28T14:23:11Z</time>
      </trkpt>
      <trkpt lat="45.23884" lon="0.56005">
        <ele>210</ele>
        <time>2022-01-28T14:23:19Z</time>
      </trkpt>
      <trkpt lat="45.23875" lon="0.56007">
        <ele>210</ele>
        <time>2022-01-28T14:23:26Z</time>
      </trkpt>
      <trkpt lat="45.23865" lon="0.56011">
        <ele>207</ele>
        <time>2022-01-28T14:23:35Z</time>
      </trkpt>
      <trkpt lat="45.23855" lon="0.56013">
        <ele>205</ele>
        <time>2022-01-28T14:23:43Z</time>
      </trkpt>
      <trkpt lat="45.23845" lon="0.56014">
        <ele>205</ele>
        <time>2022-01-28T14:23:52Z</time>
      </trkpt>
      <trkpt lat="45.23836" lon="0.56017">
        <ele>208</ele>
        <time>2022-01-28T14:24:00Z</time>
      </trkpt>
      <trkpt lat="45.23825" lon="0.56017">
        <ele>206</ele>
        <time>2022-01-28T14:24:08Z</time>
      </trkpt>
      <trkpt lat="45.23816" lon="0.56016">
        <ele>207</ele>
        <time>2022-01-28T14:24:14Z</time>
      </trkpt>
      <trkpt lat="45.23807" lon="0.56016">
        <ele>209</ele>
        <time>2022-01-28T14:24:21Z</time>
      </trkpt>
      <trkpt lat="45.23797" lon="0.56014">
        <ele>209</ele>
        <time>2022-01-28T14:24:29Z</time>
      </trkpt>
      <trkpt lat="45.23788" lon="0.56012">
        <ele>209</ele>
        <time>2022-01-28T14:24:35Z</time>
      </trkpt>
      <trkpt lat="45.23778" lon="0.56011">
        <ele>209</ele>
        <time>2022-01-28T14:24:43Z</time>
      </trkpt>
      <trkpt lat="45.23768" lon="0.5601">
        <ele>210</ele>
        <time>2022-01-28T14:24:51Z</time>
      </trkpt>
      <trkpt lat="45.23758" lon="0.5601">
        <ele>209</ele>
        <time>2022-01-28T14:24:59Z</time>
      </trkpt>
      <trkpt lat="45.23748" lon="0.56013">
        <ele>209</ele>
        <time>2022-01-28T14:25:08Z</time>
      </trkpt>
      <trkpt lat="45.23738" lon="0.56015">
        <ele>209</ele>
        <time>2022-01-28T14:25:16Z</time>
      </trkpt>
      <trkpt lat="45.23729" lon="0.56017">
        <ele>211</ele>
        <time>2022-01-28T14:25:23Z</time>
      </trkpt>
      <trkpt lat="45.23719" lon="0.56019">
        <ele>209</ele>
        <time>2022-01-28T14:25:31Z</time>
      </trkpt>
      <trkpt lat="45.2371" lon="0.56021">
        <ele>209</ele>
        <time>2022-01-28T14:25:38Z</time>
      </trkpt>
      <trkpt lat="45.237" lon="0.56024">
        <ele>210</ele>
        <time>2022-01-28T14:25:47Z</time>
      </trkpt>
      <trkpt lat="45.23691" lon="0.56029">
        <ele>209</ele>
        <time>2022-01-28T14:26:06Z</time>
      </trkpt>
      <trkpt lat="45.23682" lon="0.56032">
        <ele>209</ele>
        <time>2022-01-28T14:26:13Z</time>
      </trkpt>
      <trkpt lat="45.23674" lon="0.5604">
        <ele>210</ele>
        <time>2022-01-28T14:26:23Z</time>
      </trkpt>
      <trkpt lat="45.23665" lon="0.56045">
        <ele>209</ele>
        <time>2022-01-28T14:26:34Z</time>
      </trkpt>
      <trkpt lat="45.23655" lon="0.5605">
        <ele>207</ele>
        <time>2022-01-28T14:26:41Z</time>
      </trkpt>
      <trkpt lat="45.23646" lon="0.56056">
        <ele>209</ele>
        <time>2022-01-28T14:26:48Z</time>
      </trkpt>
      <trkpt lat="45.23637" lon="0.56059">
        <ele>210</ele>
        <time>2022-01-28T14:26:55Z</time>
      </trkpt>
      <trkpt lat="45.23628" lon="0.56064">
        <ele>212</ele>
        <time>2022-01-28T14:27:02Z</time>
      </trkpt>
      <trkpt lat="45.23619" lon="0.56069">
        <ele>213</ele>
        <time>2022-01-28T14:27:10Z</time>
      </trkpt>
      <trkpt lat="45.23609" lon="0.56073">
        <ele>215</ele>
        <time>2022-01-28T14:27:17Z</time>
      </trkpt>
      <trkpt lat="45.23601" lon="0.56078">
        <ele>215</ele>
        <time>2022-01-28T14:27:26Z</time>
      </trkpt>
      <trkpt lat="45.23591" lon="0.56081">
        <ele>216</ele>
        <time>2022-01-28T14:27:38Z</time>
      </trkpt>
      <trkpt lat="45.23582" lon="0.56084">
        <ele>217</ele>
        <time>2022-01-28T14:27:46Z</time>
      </trkpt>
      <trkpt lat="45.23572" lon="0.56088">
        <ele>217</ele>
        <time>2022-01-28T14:27:54Z</time>
      </trkpt>
      <trkpt lat="45.23563" lon="0.56092">
        <ele>218</ele>
        <time>2022-01-28T14:28:02Z</time>
      </trkpt>
      <trkpt lat="45.23555" lon="0.56097">
        <ele>219</ele>
        <time>2022-01-28T14:28:10Z</time>
      </trkpt>
      <trkpt lat="45.23545" lon="0.561">
        <ele>217</ele>
        <time>2022-01-28T14:28:19Z</time>
      </trkpt>
      <trkpt lat="45.23536" lon="0.56101">
        <ele>216</ele>
        <time>2022-01-28T14:28:28Z</time>
      </trkpt>
      <trkpt lat="45.23526" lon="0.56103">
        <ele>217</ele>
        <time>2022-01-28T14:28:37Z</time>
      </trkpt>
      <trkpt lat="45.23517" lon="0.56104">
        <ele>215</ele>
        <time>2022-01-28T14:28:45Z</time>
      </trkpt>
      <trkpt lat="45.23507" lon="0.56103">
        <ele>214</ele>
        <time>2022-01-28T14:28:55Z</time>
      </trkpt>
      <trkpt lat="45.23498" lon="0.56104">
        <ele>213</ele>
        <time>2022-01-28T14:29:02Z</time>
      </trkpt>
      <trkpt lat="45.23488" lon="0.56105">
        <ele>212</ele>
        <time>2022-01-28T14:29:10Z</time>
      </trkpt>
      <trkpt lat="45.23479" lon="0.56106">
        <ele>209</ele>
        <time>2022-01-28T14:29:17Z</time>
      </trkpt>
      <trkpt lat="45.23469" lon="0.56109">
        <ele>209</ele>
        <time>2022-01-28T14:29:25Z</time>
      </trkpt>
      <trkpt lat="45.2346" lon="0.56112">
        <ele>212</ele>
        <time>2022-01-28T14:29:34Z</time>
      </trkpt>
      <trkpt lat="45.23451" lon="0.56118">
        <ele>214</ele>
        <time>2022-01-28T14:29:43Z</time>
      </trkpt>
      <trkpt lat="45.23443" lon="0.56124">
        <ele>214</ele>
        <time>2022-01-28T14:29:51Z</time>
      </trkpt>
      <trkpt lat="45.23435" lon="0.5613">
        <ele>218</ele>
        <time>2022-01-28T14:30:00Z</time>
      </trkpt>
      <trkpt lat="45.23428" lon="0.56138">
        <ele>220</ele>
        <time>2022-01-28T14:30:11Z</time>
      </trkpt>
      <trkpt lat="45.23427" lon="0.56155">
        <ele>225</ele>
        <time>2022-01-28T14:30:25Z</time>
      </trkpt>
      <trkpt lat="45.23423" lon="0.56168">
        <ele>223</ele>
        <time>2022-01-28T14:30:33Z</time>
      </trkpt>
      <trkpt lat="45.2342" lon="0.5618">
        <ele>227</ele>
        <time>2022-01-28T14:30:42Z</time>
      </trkpt>
      <trkpt lat="45.23418" lon="0.56193">
        <ele>230</ele>
        <time>2022-01-28T14:30:50Z</time>
      </trkpt>
      <trkpt lat="45.23416" lon="0.56205">
        <ele>234</ele>
        <time>2022-01-28T14:31:00Z</time>
      </trkpt>
      <trkpt lat="45.23412" lon="0.56218">
        <ele>234</ele>
        <time>2022-01-28T14:31:08Z</time>
      </trkpt>
      <trkpt lat="45.23409" lon="0.56231">
        <ele>235</ele>
        <time>2022-01-28T14:31:18Z</time>
      </trkpt>
      <trkpt lat="45.23406" lon="0.56244">
        <ele>234</ele>
        <time>2022-01-28T14:31:27Z</time>
      </trkpt>
      <trkpt lat="45.23403" lon="0.56257">
        <ele>231</ele>
        <time>2022-01-28T14:32:20Z</time>
      </trkpt>
      <trkpt lat="45.23401" lon="0.56271">
        <ele>236</ele>
        <time>2022-01-28T14:33:19Z</time>
      </trkpt>
      <trkpt lat="45.23399" lon="0.56283">
        <ele>235</ele>
        <time>2022-01-28T14:33:29Z</time>
      </trkpt>
      <trkpt lat="45.23396" lon="0.56295">
        <ele>235</ele>
        <time>2022-01-28T14:33:36Z</time>
      </trkpt>
      <trkpt lat="45.23394" lon="0.56309">
        <ele>234</ele>
        <time>2022-01-28T14:33:44Z</time>
      </trkpt>
      <trkpt lat="45.23395" lon="0.56321">
        <ele>234</ele>
        <time>2022-01-28T14:33:51Z</time>
      </trkpt>
      <trkpt lat="45.23393" lon="0.56335">
        <ele>237</ele>
        <time>2022-01-28T14:33:59Z</time>
      </trkpt>
      <trkpt lat="45.23386" lon="0.56344">
        <ele>236</ele>
        <time>2022-01-28T14:34:07Z</time>
      </trkpt>
      <trkpt lat="45.23376" lon="0.56344">
        <ele>233</ele>
        <time>2022-01-28T14:34:14Z</time>
      </trkpt>
      <trkpt lat="45.23366" lon="0.56344">
        <ele>231</ele>
        <time>2022-01-28T14:34:21Z</time>
      </trkpt>
      <trkpt lat="45.23357" lon="0.56343">
        <ele>231</ele>
        <time>2022-01-28T14:34:29Z</time>
      </trkpt>
      <trkpt lat="45.23349" lon="0.56349">
        <ele>231</ele>
        <time>2022-01-28T14:34:38Z</time>
      </trkpt>
      <trkpt lat="45.23341" lon="0.56356">
        <ele>230</ele>
        <time>2022-01-28T14:34:45Z</time>
      </trkpt>
      <trkpt lat="45.23334" lon="0.56363">
        <ele>231</ele>
        <time>2022-01-28T14:34:54Z</time>
      </trkpt>
      <trkpt lat="45.23324" lon="0.56365">
        <ele>230</ele>
        <time>2022-01-28T14:35:02Z</time>
      </trkpt>
      <trkpt lat="45.23315" lon="0.56366">
        <ele>230</ele>
        <time>2022-01-28T14:35:08Z</time>
      </trkpt>
      <trkpt lat="45.23306" lon="0.56366">
        <ele>229</ele>
        <time>2022-01-28T14:35:15Z</time>
      </trkpt>
      <trkpt lat="45.23297" lon="0.56371">
        <ele>229</ele>
        <time>2022-01-28T14:35:21Z</time>
      </trkpt>
      <trkpt lat="45.23289" lon="0.56378">
        <ele>230</ele>
        <time>2022-01-28T14:35:28Z</time>
      </trkpt>
      <trkpt lat="45.2328" lon="0.56382">
        <ele>232</ele>
        <time>2022-01-28T14:35:36Z</time>
      </trkpt>
      <trkpt lat="45.2327" lon="0.56386">
        <ele>233</ele>
        <time>2022-01-28T14:35:45Z</time>
      </trkpt>
      <trkpt lat="45.23261" lon="0.5639">
        <ele>233</ele>
        <time>2022-01-28T14:35:53Z</time>
      </trkpt>
      <trkpt lat="45.23252" lon="0.56395">
        <ele>232</ele>
        <time>2022-01-28T14:36:02Z</time>
      </trkpt>
      <trkpt lat="45.23244" lon="0.56401">
        <ele>229</ele>
        <time>2022-01-28T14:36:10Z</time>
      </trkpt>
      <trkpt lat="45.23235" lon="0.56405">
        <ele>230</ele>
        <time>2022-01-28T14:36:19Z</time>
      </trkpt>
      <trkpt lat="45.23226" lon="0.564">
        <ele>228</ele>
        <time>2022-01-28T14:36:28Z</time>
      </trkpt>
      <trkpt lat="45.23229" lon="0.56388">
        <ele>225</ele>
        <time>2022-01-28T14:36:44Z</time>
      </trkpt>
      <trkpt lat="45.23229" lon="0.56375">
        <ele>225</ele>
        <time>2022-01-28T14:36:55Z</time>
      </trkpt>
      <trkpt lat="45.23228" lon="0.56361">
        <ele>226</ele>
        <time>2022-01-28T14:37:04Z</time>
      </trkpt>
      <trkpt lat="45.23226" lon="0.56348">
        <ele>227</ele>
        <time>2022-01-28T14:37:13Z</time>
      </trkpt>
      <trkpt lat="45.23225" lon="0.56334">
        <ele>225</ele>
        <time>2022-01-28T14:37:21Z</time>
      </trkpt>
      <trkpt lat="45.23221" lon="0.56322">
        <ele>224</ele>
        <time>2022-01-28T14:37:28Z</time>
      </trkpt>
      <trkpt lat="45.2322" lon="0.56308">
        <ele>225</ele>
        <time>2022-01-28T14:37:36Z</time>
      </trkpt>
      <trkpt lat="45.2322" lon="0.56294">
        <ele>225</ele>
        <time>2022-01-28T14:37:45Z</time>
      </trkpt>
      <trkpt lat="45.23219" lon="0.56281">
        <ele>222</ele>
        <time>2022-01-28T14:37:53Z</time>
      </trkpt>
      <trkpt lat="45.23218" lon="0.56268">
        <ele>222</ele>
        <time>2022-01-28T14:38:00Z</time>
      </trkpt>
      <trkpt lat="45.23217" lon="0.56254">
        <ele>222</ele>
        <time>2022-01-28T14:38:08Z</time>
      </trkpt>
      <trkpt lat="45.23218" lon="0.56241">
        <ele>222</ele>
        <time>2022-01-28T14:38:16Z</time>
      </trkpt>
      <trkpt lat="45.23214" lon="0.56228">
        <ele>223</ele>
        <time>2022-01-28T14:38:23Z</time>
      </trkpt>
      <trkpt lat="45.23211" lon="0.56215">
        <ele>224</ele>
        <time>2022-01-28T14:38:31Z</time>
      </trkpt>
      <trkpt lat="45.2321" lon="0.56203">
        <ele>225</ele>
        <time>2022-01-28T14:38:39Z</time>
      </trkpt>
      <trkpt lat="45.23209" lon="0.56189">
        <ele>225</ele>
        <time>2022-01-28T14:38:47Z</time>
      </trkpt>
      <trkpt lat="45.23212" lon="0.56175">
        <ele>224</ele>
        <time>2022-01-28T14:38:54Z</time>
      </trkpt>
      <trkpt lat="45.23213" lon="0.56163">
        <ele>223</ele>
        <time>2022-01-28T14:39:01Z</time>
      </trkpt>
      <trkpt lat="45.23216" lon="0.56149">
        <ele>222</ele>
        <time>2022-01-28T14:39:08Z</time>
      </trkpt>
      <trkpt lat="45.23219" lon="0.56137">
        <ele>222</ele>
        <time>2022-01-28T14:39:16Z</time>
      </trkpt>
      <trkpt lat="45.23221" lon="0.56124">
        <ele>222</ele>
        <time>2022-01-28T14:39:23Z</time>
      </trkpt>
      <trkpt lat="45.23222" lon="0.56111">
        <ele>220</ele>
        <time>2022-01-28T14:39:31Z</time>
      </trkpt>
      <trkpt lat="45.23223" lon="0.56098">
        <ele>221</ele>
        <time>2022-01-28T14:39:38Z</time>
      </trkpt>
      <trkpt lat="45.23225" lon="0.56084">
        <ele>220</ele>
        <time>2022-01-28T14:39:47Z</time>
      </trkpt>
      <trkpt lat="45.23226" lon="0.56071">
        <ele>220</ele>
        <time>2022-01-28T14:39:55Z</time>
      </trkpt>
      <trkpt lat="45.2323" lon="0.56058">
        <ele>222</ele>
        <time>2022-01-28T14:40:04Z</time>
      </trkpt>
      <trkpt lat="45.23235" lon="0.56047">
        <ele>222</ele>
        <time>2022-01-28T14:40:11Z</time>
      </trkpt>
      <trkpt lat="45.23238" lon="0.56033">
        <ele>224</ele>
        <time>2022-01-28T14:40:19Z</time>
      </trkpt>
      <trkpt lat="45.23241" lon="0.5602">
        <ele>224</ele>
        <time>2022-01-28T14:40:27Z</time>
      </trkpt>
      <trkpt lat="45.23244" lon="0.56006">
        <ele>224</ele>
        <time>2022-01-28T14:40:35Z</time>
      </trkpt>
      <trkpt lat="45.23247" lon="0.55992">
        <ele>224</ele>
        <time>2022-01-28T14:40:43Z</time>
      </trkpt>
      <trkpt lat="45.2325" lon="0.55979">
        <ele>225</ele>
        <time>2022-01-28T14:40:51Z</time>
      </trkpt>
      <trkpt lat="45.23253" lon="0.55965">
        <ele>226</ele>
        <time>2022-01-28T14:41:00Z</time>
      </trkpt>
      <trkpt lat="45.23254" lon="0.55952">
        <ele>227</ele>
        <time>2022-01-28T14:41:07Z</time>
      </trkpt>
      <trkpt lat="45.23256" lon="0.55938">
        <ele>227</ele>
        <time>2022-01-28T14:41:15Z</time>
      </trkpt>
      <trkpt lat="45.23256" lon="0.55925">
        <ele>226</ele>
        <time>2022-01-28T14:41:23Z</time>
      </trkpt>
      <trkpt lat="45.23255" lon="0.55911">
        <ele>227</ele>
        <time>2022-01-28T14:41:32Z</time>
      </trkpt>
      <trkpt lat="45.23254" lon="0.55898">
        <ele>226</ele>
        <time>2022-01-28T14:41:40Z</time>
      </trkpt>
      <trkpt lat="45.23252" lon="0.55884">
        <ele>227</ele>
        <time>2022-01-28T14:41:47Z</time>
      </trkpt>
      <trkpt lat="45.2325" lon="0.55871">
        <ele>227</ele>
        <time>2022-01-28T14:41:54Z</time>
      </trkpt>
      <trkpt lat="45.23248" lon="0.55858">
        <ele>227</ele>
        <time>2022-01-28T14:42:02Z</time>
      </trkpt>
      <trkpt lat="45.23247" lon="0.55845">
        <ele>226</ele>
        <time>2022-01-28T14:42:10Z</time>
      </trkpt>
      <trkpt lat="45.23244" lon="0.55832">
        <ele>225</ele>
        <time>2022-01-28T14:42:17Z</time>
      </trkpt>
      <trkpt lat="45.23241" lon="0.55819">
        <ele>223</ele>
        <time>2022-01-28T14:42:25Z</time>
      </trkpt>
      <trkpt lat="45.23237" lon="0.55805">
        <ele>221</ele>
        <time>2022-01-28T14:42:34Z</time>
      </trkpt>
      <trkpt lat="45.23233" lon="0.55793">
        <ele>220</ele>
        <time>2022-01-28T14:42:42Z</time>
      </trkpt>
      <trkpt lat="45.23231" lon="0.55779">
        <ele>219</ele>
        <time>2022-01-28T14:42:51Z</time>
      </trkpt>
      <trkpt lat="45.23228" lon="0.55765">
        <ele>220</ele>
        <time>2022-01-28T14:42:58Z</time>
      </trkpt>
      <trkpt lat="45.23227" lon="0.55752">
        <ele>221</ele>
        <time>2022-01-28T14:43:05Z</time>
      </trkpt>
      <trkpt lat="45.23225" lon="0.55738">
        <ele>221</ele>
        <time>2022-01-28T14:43:12Z</time>
      </trkpt>
      <trkpt lat="45.23223" lon="0.55723">
        <ele>221</ele>
        <time>2022-01-28T14:43:19Z</time>
      </trkpt>
      <trkpt lat="45.23222" lon="0.55711">
        <ele>222</ele>
        <time>2022-01-28T14:43:26Z</time>
      </trkpt>
      <trkpt lat="45.23222" lon="0.55697">
        <ele>222</ele>
        <time>2022-01-28T14:43:34Z</time>
      </trkpt>
      <trkpt lat="45.23222" lon="0.55684">
        <ele>222</ele>
        <time>2022-01-28T14:43:42Z</time>
      </trkpt>
      <trkpt lat="45.23221" lon="0.55671">
        <ele>221</ele>
        <time>2022-01-28T14:43:52Z</time>
      </trkpt>
      <trkpt lat="45.2322" lon="0.55658">
        <ele>220</ele>
        <time>2022-01-28T14:44:02Z</time>
      </trkpt>
      <trkpt lat="45.2322" lon="0.55644">
        <ele>223</ele>
        <time>2022-01-28T14:44:17Z</time>
      </trkpt>
      <trkpt lat="45.23212" lon="0.55636">
        <ele>221</ele>
        <time>2022-01-28T14:44:28Z</time>
      </trkpt>
      <trkpt lat="45.23203" lon="0.55631">
        <ele>221</ele>
        <time>2022-01-28T14:44:38Z</time>
      </trkpt>
      <trkpt lat="45.23194" lon="0.55629">
        <ele>220</ele>
        <time>2022-01-28T14:44:46Z</time>
      </trkpt>
      <trkpt lat="45.23185" lon="0.55634">
        <ele>219</ele>
        <time>2022-01-28T14:44:55Z</time>
      </trkpt>
      <trkpt lat="45.23176" lon="0.55638">
        <ele>218</ele>
        <time>2022-01-28T14:45:04Z</time>
      </trkpt>
      <trkpt lat="45.23167" lon="0.55632">
        <ele>217</ele>
        <time>2022-01-28T14:45:13Z</time>
      </trkpt>
      <trkpt lat="45.2316" lon="0.55623">
        <ele>214</ele>
        <time>2022-01-28T14:45:19Z</time>
      </trkpt>
      <trkpt lat="45.23154" lon="0.55612">
        <ele>217</ele>
        <time>2022-01-28T14:45:27Z</time>
      </trkpt>
      <trkpt lat="45.23147" lon="0.55604">
        <ele>219</ele>
        <time>2022-01-28T14:45:35Z</time>
      </trkpt>
      <trkpt lat="45.23141" lon="0.55593">
        <ele>223</ele>
        <time>2022-01-28T14:45:43Z</time>
      </trkpt>
      <trkpt lat="45.23134" lon="0.55583">
        <ele>226</ele>
        <time>2022-01-28T14:45:51Z</time>
      </trkpt>
      <trkpt lat="45.23128" lon="0.55573">
        <ele>227</ele>
        <time>2022-01-28T14:45:57Z</time>
      </trkpt>
      <trkpt lat="45.23123" lon="0.55561">
        <ele>229</ele>
        <time>2022-01-28T14:46:04Z</time>
      </trkpt>
      <trkpt lat="45.23117" lon="0.55551">
        <ele>229</ele>
        <time>2022-01-28T14:46:11Z</time>
      </trkpt>
      <trkpt lat="45.23111" lon="0.55539">
        <ele>227</ele>
        <time>2022-01-28T14:46:19Z</time>
      </trkpt>
      <trkpt lat="45.23105" lon="0.55528">
        <ele>226</ele>
        <time>2022-01-28T14:46:27Z</time>
      </trkpt>
      <trkpt lat="45.23099" lon="0.55517">
        <ele>226</ele>
        <time>2022-01-28T14:46:35Z</time>
      </trkpt>
      <trkpt lat="45.23092" lon="0.55507">
        <ele>226</ele>
        <time>2022-01-28T14:46:50Z</time>
      </trkpt>
      <trkpt lat="45.23086" lon="0.55497">
        <ele>226</ele>
        <time>2022-01-28T14:46:57Z</time>
      </trkpt>
      <trkpt lat="45.2308" lon="0.55486">
        <ele>227</ele>
        <time>2022-01-28T14:47:05Z</time>
      </trkpt>
      <trkpt lat="45.23074" lon="0.55474">
        <ele>226</ele>
        <time>2022-01-28T14:47:13Z</time>
      </trkpt>
      <trkpt lat="45.23069" lon="0.55464">
        <ele>226</ele>
        <time>2022-01-28T14:47:21Z</time>
      </trkpt>
      <trkpt lat="45.23063" lon="0.55453">
        <ele>224</ele>
        <time>2022-01-28T14:47:28Z</time>
      </trkpt>
      <trkpt lat="45.23057" lon="0.55441">
        <ele>223</ele>
        <time>2022-01-28T14:47:36Z</time>
      </trkpt>
      <trkpt lat="45.23051" lon="0.55431">
        <ele>222</ele>
        <time>2022-01-28T14:47:43Z</time>
      </trkpt>
      <trkpt lat="45.23045" lon="0.55421">
        <ele>221</ele>
        <time>2022-01-28T14:47:50Z</time>
      </trkpt>
      <trkpt lat="45.23039" lon="0.5541">
        <ele>220</ele>
        <time>2022-01-28T14:47:58Z</time>
      </trkpt>
      <trkpt lat="45.23034" lon="0.55399">
        <ele>218</ele>
        <time>2022-01-28T14:48:05Z</time>
      </trkpt>
      <trkpt lat="45.23028" lon="0.55387">
        <ele>216</ele>
        <time>2022-01-28T14:48:14Z</time>
      </trkpt>
      <trkpt lat="45.23024" lon="0.55376">
        <ele>213</ele>
        <time>2022-01-28T14:48:40Z</time>
      </trkpt>
      <trkpt lat="45.2302" lon="0.55365">
        <ele>215</ele>
        <time>2022-01-28T14:49:20Z</time>
      </trkpt>
      <trkpt lat="45.23015" lon="0.55353">
        <ele>214</ele>
        <time>2022-01-28T14:49:27Z</time>
      </trkpt>
      <trkpt lat="45.23012" lon="0.5534">
        <ele>215</ele>
        <time>2022-01-28T14:49:35Z</time>
      </trkpt>
      <trkpt lat="45.23007" lon="0.55328">
        <ele>215</ele>
        <time>2022-01-28T14:49:43Z</time>
      </trkpt>
      <trkpt lat="45.23002" lon="0.55316">
        <ele>214</ele>
        <time>2022-01-28T14:49:50Z</time>
      </trkpt>
      <trkpt lat="45.22998" lon="0.55304">
        <ele>214</ele>
        <time>2022-01-28T14:49:57Z</time>
      </trkpt>
      <trkpt lat="45.22993" lon="0.55292">
        <ele>214</ele>
        <time>2022-01-28T14:50:05Z</time>
      </trkpt>
      <trkpt lat="45.22988" lon="0.55279">
        <ele>214</ele>
        <time>2022-01-28T14:50:14Z</time>
      </trkpt>
      <trkpt lat="45.22981" lon="0.5527">
        <ele>213</ele>
        <time>2022-01-28T14:50:22Z</time>
      </trkpt>
      <trkpt lat="45.22972" lon="0.55264">
        <ele>211</ele>
        <time>2022-01-28T14:50:31Z</time>
      </trkpt>
      <trkpt lat="45.22966" lon="0.55252">
        <ele>211</ele>
        <time>2022-01-28T14:50:39Z</time>
      </trkpt>
      <trkpt lat="45.22962" lon="0.5524">
        <ele>209</ele>
        <time>2022-01-28T14:50:46Z</time>
      </trkpt>
      <trkpt lat="45.22958" lon="0.55227">
        <ele>208</ele>
        <time>2022-01-28T14:50:54Z</time>
      </trkpt>
      <trkpt lat="45.22956" lon="0.55215">
        <ele>207</ele>
        <time>2022-01-28T14:51:02Z</time>
      </trkpt>
      <trkpt lat="45.22951" lon="0.55204">
        <ele>207</ele>
        <time>2022-01-28T14:51:09Z</time>
      </trkpt>
      <trkpt lat="45.22946" lon="0.55192">
        <ele>207</ele>
        <time>2022-01-28T14:51:16Z</time>
      </trkpt>
      <trkpt lat="45.22942" lon="0.5518">
        <ele>206</ele>
        <time>2022-01-28T14:51:24Z</time>
      </trkpt>
      <trkpt lat="45.22936" lon="0.55168">
        <ele>205</ele>
        <time>2022-01-28T14:51:31Z</time>
      </trkpt>
      <trkpt lat="45.2293" lon="0.55156">
        <ele>203</ele>
        <time>2022-01-28T14:51:39Z</time>
      </trkpt>
      <trkpt lat="45.22924" lon="0.55146">
        <ele>200</ele>
        <time>2022-01-28T14:51:47Z</time>
      </trkpt>
      <trkpt lat="45.22918" lon="0.55137">
        <ele>199</ele>
        <time>2022-01-28T14:51:54Z</time>
      </trkpt>
      <trkpt lat="45.22911" lon="0.55128">
        <ele>197</ele>
        <time>2022-01-28T14:52:01Z</time>
      </trkpt>
      <trkpt lat="45.22904" lon="0.55119">
        <ele>195</ele>
        <time>2022-01-28T14:52:08Z</time>
      </trkpt>
      <trkpt lat="45.22896" lon="0.55111">
        <ele>193</ele>
        <time>2022-01-28T14:52:15Z</time>
      </trkpt>
      <trkpt lat="45.22888" lon="0.55105">
        <ele>193</ele>
        <time>2022-01-28T14:52:23Z</time>
      </trkpt>
      <trkpt lat="45.22879" lon="0.55098">
        <ele>193</ele>
        <time>2022-01-28T14:52:32Z</time>
      </trkpt>
      <trkpt lat="45.2287" lon="0.55097">
        <ele>190</ele>
        <time>2022-01-28T14:52:43Z</time>
      </trkpt>
      <trkpt lat="45.22866" lon="0.55109">
        <ele>191</ele>
        <time>2022-01-28T14:52:52Z</time>
      </trkpt>
      <trkpt lat="45.22864" lon="0.55122">
        <ele>192</ele>
        <time>2022-01-28T14:53:00Z</time>
      </trkpt>
      <trkpt lat="45.22861" lon="0.55135">
        <ele>193</ele>
        <time>2022-01-28T14:53:08Z</time>
      </trkpt>
      <trkpt lat="45.2286" lon="0.55149">
        <ele>194</ele>
        <time>2022-01-28T14:53:16Z</time>
      </trkpt>
      <trkpt lat="45.22858" lon="0.55162">
        <ele>194</ele>
        <time>2022-01-28T14:53:23Z</time>
      </trkpt>
      <trkpt lat="45.22856" lon="0.55175">
        <ele>194</ele>
        <time>2022-01-28T14:53:32Z</time>
      </trkpt>
      <trkpt lat="45.22853" lon="0.55188">
        <ele>193</ele>
        <time>2022-01-28T14:53:39Z</time>
      </trkpt>
      <trkpt lat="45.22851" lon="0.55201">
        <ele>193</ele>
        <time>2022-01-28T14:53:47Z</time>
      </trkpt>
      <trkpt lat="45.22848" lon="0.55214">
        <ele>193</ele>
        <time>2022-01-28T14:53:55Z</time>
      </trkpt>
      <trkpt lat="45.22841" lon="0.55225">
        <ele>192</ele>
        <time>2022-01-28T14:54:10Z</time>
      </trkpt>
      <trkpt lat="45.22831" lon="0.55229">
        <ele>193</ele>
        <time>2022-01-28T14:54:18Z</time>
      </trkpt>
      <trkpt lat="45.22822" lon="0.55226">
        <ele>193</ele>
        <time>2022-01-28T14:54:27Z</time>
      </trkpt>
      <trkpt lat="45.22812" lon="0.55223">
        <ele>192</ele>
        <time>2022-01-28T14:54:36Z</time>
      </trkpt>
      <trkpt lat="45.22803" lon="0.55218">
        <ele>190</ele>
        <time>2022-01-28T14:54:44Z</time>
      </trkpt>
      <trkpt lat="45.22795" lon="0.55211">
        <ele>189</ele>
        <time>2022-01-28T14:54:52Z</time>
      </trkpt>
      <trkpt lat="45.22787" lon="0.55207">
        <ele>189</ele>
        <time>2022-01-28T14:54:59Z</time>
      </trkpt>
      <trkpt lat="45.22778" lon="0.55202">
        <ele>188</ele>
        <time>2022-01-28T14:55:05Z</time>
      </trkpt>
      <trkpt lat="45.22769" lon="0.55198">
        <ele>186</ele>
        <time>2022-01-28T14:55:12Z</time>
      </trkpt>
      <trkpt lat="45.22761" lon="0.55193">
        <ele>187</ele>
        <time>2022-01-28T14:55:20Z</time>
      </trkpt>
      <trkpt lat="45.22752" lon="0.55189">
        <ele>188</ele>
        <time>2022-01-28T14:55:29Z</time>
      </trkpt>
      <trkpt lat="45.22743" lon="0.55184">
        <ele>187</ele>
        <time>2022-01-28T14:55:38Z</time>
      </trkpt>
      <trkpt lat="45.22734" lon="0.55182">
        <ele>186</ele>
        <time>2022-01-28T14:55:47Z</time>
      </trkpt>
      <trkpt lat="45.22725" lon="0.55178">
        <ele>189</ele>
        <time>2022-01-28T14:55:57Z</time>
      </trkpt>
      <trkpt lat="45.22716" lon="0.55173">
        <ele>190</ele>
        <time>2022-01-28T14:56:07Z</time>
      </trkpt>
      <trkpt lat="45.22708" lon="0.55167">
        <ele>189</ele>
        <time>2022-01-28T14:56:16Z</time>
      </trkpt>
      <trkpt lat="45.22698" lon="0.55164">
        <ele>193</ele>
        <time>2022-01-28T14:56:26Z</time>
      </trkpt>
      <trkpt lat="45.22689" lon="0.55161">
        <ele>196</ele>
        <time>2022-01-28T14:56:36Z</time>
      </trkpt>
      <trkpt lat="45.22682" lon="0.55152">
        <ele>196</ele>
        <time>2022-01-28T14:57:02Z</time>
      </trkpt>
      <trkpt lat="45.22674" lon="0.55146">
        <ele>197</ele>
        <time>2022-01-28T14:57:12Z</time>
      </trkpt>
      <trkpt lat="45.22664" lon="0.55143">
        <ele>195</ele>
        <time>2022-01-28T14:57:22Z</time>
      </trkpt>
      <trkpt lat="45.22655" lon="0.5514">
        <ele>197</ele>
        <time>2022-01-28T14:57:30Z</time>
      </trkpt>
      <trkpt lat="45.22646" lon="0.55136">
        <ele>200</ele>
        <time>2022-01-28T14:57:38Z</time>
      </trkpt>
      <trkpt lat="45.22637" lon="0.55132">
        <ele>200</ele>
        <time>2022-01-28T14:57:46Z</time>
      </trkpt>
      <trkpt lat="45.22628" lon="0.55128">
        <ele>200</ele>
        <time>2022-01-28T14:57:54Z</time>
      </trkpt>
      <trkpt lat="45.22619" lon="0.55125">
        <ele>202</ele>
        <time>2022-01-28T14:58:03Z</time>
      </trkpt>
      <trkpt lat="45.2261" lon="0.55122">
        <ele>203</ele>
        <time>2022-01-28T14:58:11Z</time>
      </trkpt>
      <trkpt lat="45.226" lon="0.55117">
        <ele>204</ele>
        <time>2022-01-28T14:58:19Z</time>
      </trkpt>
      <trkpt lat="45.2259" lon="0.55114">
        <ele>204</ele>
        <time>2022-01-28T14:58:28Z</time>
      </trkpt>
      <trkpt lat="45.22582" lon="0.55109">
        <ele>204</ele>
        <time>2022-01-28T14:58:36Z</time>
      </trkpt>
      <trkpt lat="45.22573" lon="0.55103">
        <ele>205</ele>
        <time>2022-01-28T14:58:44Z</time>
      </trkpt>
      <trkpt lat="45.22565" lon="0.55097">
        <ele>205</ele>
        <time>2022-01-28T14:58:52Z</time>
      </trkpt>
      <trkpt lat="45.22556" lon="0.55091">
        <ele>206</ele>
        <time>2022-01-28T14:59:01Z</time>
      </trkpt>
      <trkpt lat="45.22547" lon="0.55086">
        <ele>206</ele>
        <time>2022-01-28T14:59:10Z</time>
      </trkpt>
      <trkpt lat="45.22539" lon="0.55082">
        <ele>206</ele>
        <time>2022-01-28T14:59:18Z</time>
      </trkpt>
      <trkpt lat="45.2253" lon="0.55076">
        <ele>206</ele>
        <time>2022-01-28T14:59:26Z</time>
      </trkpt>
      <trkpt lat="45.22521" lon="0.55072">
        <ele>207</ele>
        <time>2022-01-28T14:59:34Z</time>
      </trkpt>
      <trkpt lat="45.22512" lon="0.55069">
        <ele>208</ele>
        <time>2022-01-28T14:59:43Z</time>
      </trkpt>
      <trkpt lat="45.22503" lon="0.55064">
        <ele>209</ele>
        <time>2022-01-28T14:59:51Z</time>
      </trkpt>
      <trkpt lat="45.22494" lon="0.55061">
        <ele>209</ele>
        <time>2022-01-28T14:59:59Z</time>
      </trkpt>
      <trkpt lat="45.22484" lon="0.55056">
        <ele>210</ele>
        <time>2022-01-28T15:00:08Z</time>
      </trkpt>
      <trkpt lat="45.22475" lon="0.55053">
        <ele>211</ele>
        <time>2022-01-28T15:00:17Z</time>
      </trkpt>
      <trkpt lat="45.22466" lon="0.55048">
        <ele>212</ele>
        <time>2022-01-28T15:00:26Z</time>
      </trkpt>
      <trkpt lat="45.22457" lon="0.55047">
        <ele>212</ele>
        <time>2022-01-28T15:00:34Z</time>
      </trkpt>
      <trkpt lat="45.22448" lon="0.55042">
        <ele>213</ele>
        <time>2022-01-28T15:00:43Z</time>
      </trkpt>
      <trkpt lat="45.22439" lon="0.55039">
        <ele>214</ele>
        <time>2022-01-28T15:00:51Z</time>
      </trkpt>
      <trkpt lat="45.22429" lon="0.55037">
        <ele>214</ele>
        <time>2022-01-28T15:01:01Z</time>
      </trkpt>
      <trkpt lat="45.22423" lon="0.55046">
        <ele>217</ele>
        <time>2022-01-28T15:01:40Z</time>
      </trkpt>
      <trkpt lat="45.22423" lon="0.55059">
        <ele>215</ele>
        <time>2022-01-28T15:01:48Z</time>
      </trkpt>
      <trkpt lat="45.22423" lon="0.55073">
        <ele>216</ele>
        <time>2022-01-28T15:01:57Z</time>
      </trkpt>
      <trkpt lat="45.22424" lon="0.55087">
        <ele>216</ele>
        <time>2022-01-28T15:02:06Z</time>
      </trkpt>
      <trkpt lat="45.22424" lon="0.551">
        <ele>215</ele>
        <time>2022-01-28T15:02:15Z</time>
      </trkpt>
      <trkpt lat="45.22427" lon="0.55113">
        <ele>217</ele>
        <time>2022-01-28T15:02:24Z</time>
      </trkpt>
      <trkpt lat="45.22429" lon="0.55127">
        <ele>216</ele>
        <time>2022-01-28T15:02:33Z</time>
      </trkpt>
      <trkpt lat="45.2243" lon="0.55139">
        <ele>215</ele>
        <time>2022-01-28T15:02:42Z</time>
      </trkpt>
      <trkpt lat="45.22432" lon="0.55153">
        <ele>216</ele>
        <time>2022-01-28T15:02:51Z</time>
      </trkpt>
      <trkpt lat="45.22432" lon="0.55166">
        <ele>215</ele>
        <time>2022-01-28T15:03:00Z</time>
      </trkpt>
      <trkpt lat="45.22432" lon="0.55179">
        <ele>218</ele>
        <time>2022-01-28T15:03:10Z</time>
      </trkpt>
      <trkpt lat="45.22433" lon="0.55193">
        <ele>218</ele>
        <time>2022-01-28T15:03:20Z</time>
      </trkpt>
      <trkpt lat="45.22433" lon="0.55205">
        <ele>217</ele>
        <time>2022-01-28T15:03:29Z</time>
      </trkpt>
      <trkpt lat="45.22433" lon="0.55218">
        <ele>217</ele>
        <time>2022-01-28T15:03:38Z</time>
      </trkpt>
      <trkpt lat="45.22433" lon="0.55231">
        <ele>218</ele>
        <time>2022-01-28T15:03:46Z</time>
      </trkpt>
      <trkpt lat="45.22432" lon="0.55245">
        <ele>217</ele>
        <time>2022-01-28T15:03:54Z</time>
      </trkpt>
      <trkpt lat="45.22432" lon="0.55257">
        <ele>215</ele>
        <time>2022-01-28T15:04:03Z</time>
      </trkpt>
      <trkpt lat="45.22432" lon="0.55271">
        <ele>214</ele>
        <time>2022-01-28T15:04:13Z</time>
      </trkpt>
      <trkpt lat="45.22433" lon="0.55285">
        <ele>213</ele>
        <time>2022-01-28T15:04:23Z</time>
      </trkpt>
      <trkpt lat="45.22432" lon="0.55299">
        <ele>214</ele>
        <time>2022-01-28T15:04:34Z</time>
      </trkpt>
      <trkpt lat="45.22432" lon="0.55312">
        <ele>215</ele>
        <time>2022-01-28T15:04:42Z</time>
      </trkpt>
      <trkpt lat="45.22433" lon="0.55325">
        <ele>214</ele>
        <time>2022-01-28T15:04:49Z</time>
      </trkpt>
      <trkpt lat="45.22434" lon="0.55339">
        <ele>217</ele>
        <time>2022-01-28T15:04:59Z</time>
      </trkpt>
      <trkpt lat="45.22434" lon="0.55353">
        <ele>216</ele>
        <time>2022-01-28T15:05:07Z</time>
      </trkpt>
      <trkpt lat="45.22434" lon="0.55367">
        <ele>216</ele>
        <time>2022-01-28T15:05:15Z</time>
      </trkpt>
      <trkpt lat="45.22435" lon="0.55381">
        <ele>214</ele>
        <time>2022-01-28T15:05:23Z</time>
      </trkpt>
      <trkpt lat="45.22434" lon="0.55394">
        <ele>213</ele>
        <time>2022-01-28T15:05:30Z</time>
      </trkpt>
      <trkpt lat="45.22433" lon="0.55407">
        <ele>211</ele>
        <time>2022-01-28T15:05:37Z</time>
      </trkpt>
      <trkpt lat="45.2243" lon="0.5542">
        <ele>210</ele>
        <time>2022-01-28T15:05:44Z</time>
      </trkpt>
      <trkpt lat="45.22429" lon="0.55434">
        <ele>210</ele>
        <time>2022-01-28T15:05:52Z</time>
      </trkpt>
      <trkpt lat="45.2243" lon="0.55448">
        <ele>209</ele>
        <time>2022-01-28T15:06:00Z</time>
      </trkpt>
      <trkpt lat="45.22431" lon="0.55462">
        <ele>207</ele>
        <time>2022-01-28T15:06:07Z</time>
      </trkpt>
      <trkpt lat="45.22433" lon="0.55475">
        <ele>206</ele>
        <time>2022-01-28T15:06:14Z</time>
      </trkpt>
      <trkpt lat="45.22434" lon="0.55489">
        <ele>204</ele>
        <time>2022-01-28T15:06:22Z</time>
      </trkpt>
      <trkpt lat="45.22437" lon="0.55502">
        <ele>203</ele>
        <time>2022-01-28T15:06:30Z</time>
      </trkpt>
      <trkpt lat="45.22439" lon="0.55515">
        <ele>203</ele>
        <time>2022-01-28T15:06:38Z</time>
      </trkpt>
      <trkpt lat="45.2244" lon="0.55529">
        <ele>204</ele>
        <time>2022-01-28T15:06:45Z</time>
      </trkpt>
      <trkpt lat="45.22442" lon="0.55543">
        <ele>202</ele>
        <time>2022-01-28T15:06:53Z</time>
      </trkpt>
      <trkpt lat="45.22445" lon="0.55555">
        <ele>204</ele>
        <time>2022-01-28T15:07:00Z</time>
      </trkpt>
      <trkpt lat="45.22447" lon="0.55568">
        <ele>204</ele>
        <time>2022-01-28T15:07:07Z</time>
      </trkpt>
      <trkpt lat="45.22448" lon="0.55583">
        <ele>204</ele>
        <time>2022-01-28T15:07:15Z</time>
      </trkpt>
      <trkpt lat="45.22449" lon="0.55597">
        <ele>205</ele>
        <time>2022-01-28T15:07:23Z</time>
      </trkpt>
      <trkpt lat="45.2245" lon="0.55611">
        <ele>204</ele>
        <time>2022-01-28T15:07:31Z</time>
      </trkpt>
      <trkpt lat="45.22453" lon="0.55624">
        <ele>204</ele>
        <time>2022-01-28T15:07:38Z</time>
      </trkpt>
      <trkpt lat="45.22456" lon="0.55638">
        <ele>205</ele>
        <time>2022-01-28T15:07:46Z</time>
      </trkpt>
      <trkpt lat="45.2246" lon="0.5565">
        <ele>204</ele>
        <time>2022-01-28T15:07:54Z</time>
      </trkpt>
      <trkpt lat="45.22463" lon="0.55663">
        <ele>204</ele>
        <time>2022-01-28T15:08:03Z</time>
      </trkpt>
      <trkpt lat="45.22466" lon="0.55676">
        <ele>204</ele>
        <time>2022-01-28T15:08:11Z</time>
      </trkpt>
      <trkpt lat="45.22469" lon="0.55689">
        <ele>206</ele>
        <time>2022-01-28T15:08:18Z</time>
      </trkpt>
      <trkpt lat="45.2247" lon="0.55702">
        <ele>207</ele>
        <time>2022-01-28T15:08:26Z</time>
      </trkpt>
      <trkpt lat="45.22471" lon="0.55716">
        <ele>208</ele>
        <time>2022-01-28T15:08:35Z</time>
      </trkpt>
      <trkpt lat="45.22473" lon="0.5573">
        <ele>209</ele>
        <time>2022-01-28T15:08:43Z</time>
      </trkpt>
      <trkpt lat="45.22474" lon="0.55743">
        <ele>209</ele>
        <time>2022-01-28T15:08:52Z</time>
      </trkpt>
      <trkpt lat="45.22476" lon="0.55756">
        <ele>210</ele>
        <time>2022-01-28T15:09:00Z</time>
      </trkpt>
      <trkpt lat="45.2248" lon="0.55767">
        <ele>212</ele>
        <time>2022-01-28T15:09:10Z</time>
      </trkpt>
      <trkpt lat="45.22487" lon="0.55776">
        <ele>213</ele>
        <time>2022-01-28T15:09:19Z</time>
      </trkpt>
      <trkpt lat="45.22494" lon="0.55785">
        <ele>213</ele>
        <time>2022-01-28T15:09:29Z</time>
      </trkpt>
      <trkpt lat="45.22501" lon="0.55793">
        <ele>215</ele>
        <time>2022-01-28T15:09:52Z</time>
      </trkpt>
      <trkpt lat="45.22509" lon="0.55801">
        <ele>215</ele>
        <time>2022-01-28T15:10:03Z</time>
      </trkpt>
      <trkpt lat="45.22516" lon="0.55811">
        <ele>215</ele>
        <time>2022-01-28T15:10:14Z</time>
      </trkpt>
      <trkpt lat="45.22523" lon="0.55818">
        <ele>219</ele>
        <time>2022-01-28T15:12:06Z</time>
      </trkpt>
      <trkpt lat="45.22531" lon="0.55825">
        <ele>221</ele>
        <time>2022-01-28T15:12:14Z</time>
      </trkpt>
      <trkpt lat="45.22539" lon="0.55833">
        <ele>222</ele>
        <time>2022-01-28T15:12:22Z</time>
      </trkpt>
      <trkpt lat="45.22545" lon="0.55843">
        <ele>223</ele>
        <time>2022-01-28T15:12:30Z</time>
      </trkpt>
      <trkpt lat="45.22551" lon="0.55854">
        <ele>227</ele>
        <time>2022-01-28T15:12:39Z</time>
      </trkpt>
      <trkpt lat="45.22555" lon="0.55866">
        <ele>228</ele>
        <time>2022-01-28T15:12:47Z</time>
      </trkpt>
      <trkpt lat="45.22558" lon="0.55879">
        <ele>227</ele>
        <time>2022-01-28T15:12:55Z</time>
      </trkpt>
      <trkpt lat="45.22562" lon="0.55891">
        <ele>226</ele>
        <time>2022-01-28T15:13:03Z</time>
      </trkpt>
      <trkpt lat="45.22566" lon="0.55903">
        <ele>228</ele>
        <time>2022-01-28T15:13:11Z</time>
      </trkpt>
      <trkpt lat="45.2257" lon="0.55916">
        <ele>229</ele>
        <time>2022-01-28T15:13:21Z</time>
      </trkpt>
      <trkpt lat="45.22574" lon="0.55929">
        <ele>225</ele>
        <time>2022-01-28T15:13:31Z</time>
      </trkpt>
      <trkpt lat="45.22579" lon="0.55941">
        <ele>225</ele>
        <time>2022-01-28T15:13:39Z</time>
      </trkpt>
      <trkpt lat="45.22587" lon="0.55949">
        <ele>226</ele>
        <time>2022-01-28T15:13:48Z</time>
      </trkpt>
      <trkpt lat="45.22591" lon="0.55951">
        <ele>231</ele>
        <time>2022-01-28T15:15:49Z</time>
      </trkpt>
      <trkpt lat="45.226" lon="0.55955">
        <ele>229</ele>
        <time>2022-01-28T15:16:16Z</time>
      </trkpt>
      <trkpt lat="45.2261" lon="0.55962">
        <ele>229</ele>
        <time>2022-01-28T15:16:24Z</time>
      </trkpt>
      <trkpt lat="45.22618" lon="0.55967">
        <ele>228</ele>
        <time>2022-01-28T15:16:31Z</time>
      </trkpt>
      <trkpt lat="45.22628" lon="0.55968">
        <ele>231</ele>
        <time>2022-01-28T15:16:39Z</time>
      </trkpt>
      <trkpt lat="45.22638" lon="0.55973">
        <ele>232</ele>
        <time>2022-01-28T15:16:46Z</time>
      </trkpt>
      <trkpt lat="45.22647" lon="0.55979">
        <ele>233</ele>
        <time>2022-01-28T15:16:53Z</time>
      </trkpt>
      <trkpt lat="45.22655" lon="0.55985">
        <ele>234</ele>
        <time>2022-01-28T15:17:01Z</time>
      </trkpt>
      <trkpt lat="45.22664" lon="0.55991">
        <ele>234</ele>
        <time>2022-01-28T15:17:09Z</time>
      </trkpt>
      <trkpt lat="45.22673" lon="0.55997">
        <ele>234</ele>
        <time>2022-01-28T15:17:16Z</time>
      </trkpt>
      <trkpt lat="45.22681" lon="0.56004">
        <ele>234</ele>
        <time>2022-01-28T15:17:23Z</time>
      </trkpt>
      <trkpt lat="45.22687" lon="0.56014">
        <ele>233</ele>
        <time>2022-01-28T15:17:29Z</time>
      </trkpt>
      <trkpt lat="45.22691" lon="0.56028">
        <ele>230</ele>
        <time>2022-01-28T15:17:35Z</time>
      </trkpt>
      <trkpt lat="45.22695" lon="0.56041">
        <ele>228</ele>
        <time>2022-01-28T15:17:42Z</time>
      </trkpt>
      <trkpt lat="45.22701" lon="0.56051">
        <ele>229</ele>
        <time>2022-01-28T15:17:51Z</time>
      </trkpt>
      <trkpt lat="45.22711" lon="0.56058">
        <ele>230</ele>
        <time>2022-01-28T15:17:59Z</time>
      </trkpt>
      <trkpt lat="45.22721" lon="0.56063">
        <ele>229</ele>
        <time>2022-01-28T15:18:08Z</time>
      </trkpt>
      <trkpt lat="45.22729" lon="0.5607">
        <ele>230</ele>
        <time>2022-01-28T15:18:16Z</time>
      </trkpt>
      <trkpt lat="45.22733" lon="0.56084">
        <ele>228</ele>
        <time>2022-01-28T15:18:24Z</time>
      </trkpt>
      <trkpt lat="45.22735" lon="0.56097">
        <ele>228</ele>
        <time>2022-01-28T15:18:31Z</time>
      </trkpt>
      <trkpt lat="45.22738" lon="0.5611">
        <ele>228</ele>
        <time>2022-01-28T15:18:39Z</time>
      </trkpt>
      <trkpt lat="45.22743" lon="0.56121">
        <ele>229</ele>
        <time>2022-01-28T15:18:48Z</time>
      </trkpt>
      <trkpt lat="45.22749" lon="0.56132">
        <ele>228</ele>
        <time>2022-01-28T15:18:56Z</time>
      </trkpt>
      <trkpt lat="45.22751" lon="0.56145">
        <ele>229</ele>
        <time>2022-01-28T15:19:05Z</time>
      </trkpt>
      <trkpt lat="45.22749" lon="0.56157">
        <ele>231</ele>
        <time>2022-01-28T15:19:16Z</time>
      </trkpt>
      <trkpt lat="45.22743" lon="0.56167">
        <ele>233</ele>
        <time>2022-01-28T15:19:26Z</time>
      </trkpt>
    </trkseg>
  </trk>
</gpx>